<?xml version="1.0" encoding="UTF-8" standalone="no" ?>
<gpx xmlns="http://www.topografix.com/GPX/1/1" xmlns:xsi="http://www.w3.org/2001/XMLSchema-instance" xsi:schemaLocation="http://www.topografix.com/GPX/1/1 http://www.topografix.com/GPX/1/1/gpx.xsd" version="1.1" creator="VisuGPX - https://www.visugpx.com">
  <metadata>
    <name>Mb1.gpx</name>
    <desc><![CDATA[Des arènes de maussane aux baux de Provence ]]></desc>
  </metadata>
  <trk>
    <name><![CDATA[Tracé 001]]></name>
    <extensions>
      <line xmlns="http://www.topografix.com/GPX/gpx_style/0/2">
        <color>0000FF</color>
        <width>4</width>
      </line>
    </extensions>
    <trkseg>
      <trkpt lat="43.71755" lon="4.80726">
        <ele>27.4</ele>
        <time>2022-10-16T06:39:29Z</time>
      </trkpt>
      <trkpt lat="43.71777" lon="4.80704">
        <ele>28</ele>
      </trkpt>
      <trkpt lat="43.71802" lon="4.80701">
        <ele>28.5</ele>
        <time>2022-10-16T06:39:43Z</time>
      </trkpt>
      <trkpt lat="43.71837" lon="4.80704">
        <ele>29.2</ele>
        <time>2022-10-16T06:40:18Z</time>
      </trkpt>
      <trkpt lat="43.71839" lon="4.80706">
        <ele>29.2</ele>
        <time>2022-10-16T06:40:31Z</time>
      </trkpt>
      <trkpt lat="43.71861" lon="4.80708">
        <ele>30.2</ele>
        <time>2022-10-16T06:41:04Z</time>
      </trkpt>
      <trkpt lat="43.7188" lon="4.80717">
        <ele>30.9</ele>
        <time>2022-10-16T06:41:26Z</time>
      </trkpt>
      <trkpt lat="43.71902" lon="4.80723">
        <ele>31.7</ele>
        <time>2022-10-16T06:42:03Z</time>
      </trkpt>
      <trkpt lat="43.71922" lon="4.80726">
        <ele>32.4</ele>
        <time>2022-10-16T06:42:30Z</time>
      </trkpt>
      <trkpt lat="43.71975" lon="4.80741">
        <ele>33.5</ele>
        <time>2022-10-16T06:43:51Z</time>
      </trkpt>
      <trkpt lat="43.71991" lon="4.80743">
        <ele>33.9</ele>
        <time>2022-10-16T06:44:06Z</time>
      </trkpt>
      <trkpt lat="43.72006" lon="4.80749">
        <ele>34.2</ele>
        <time>2022-10-16T06:44:21Z</time>
      </trkpt>
      <trkpt lat="43.72044" lon="4.80754">
        <ele>35.6</ele>
        <time>2022-10-16T06:45:12Z</time>
      </trkpt>
      <trkpt lat="43.721" lon="4.80724">
        <ele>36.9</ele>
        <time>2022-10-16T06:46:11Z</time>
      </trkpt>
      <trkpt lat="43.72104" lon="4.80718">
        <ele>36.9</ele>
      </trkpt>
      <trkpt lat="43.72115" lon="4.80714">
        <ele>36.9</ele>
        <time>2022-10-16T06:46:30Z</time>
      </trkpt>
      <trkpt lat="43.72122" lon="4.80715">
        <ele>37</ele>
        <time>2022-10-16T06:46:40Z</time>
      </trkpt>
      <trkpt lat="43.72121" lon="4.80695">
        <ele>36.8</ele>
        <time>2022-10-16T06:46:56Z</time>
      </trkpt>
      <trkpt lat="43.7213" lon="4.80662">
        <ele>36.6</ele>
        <time>2022-10-16T06:47:24Z</time>
      </trkpt>
      <trkpt lat="43.72135" lon="4.80634">
        <ele>36.6</ele>
      </trkpt>
      <trkpt lat="43.72141" lon="4.80624">
        <ele>36.7</ele>
        <time>2022-10-16T06:47:58Z</time>
      </trkpt>
      <trkpt lat="43.72147" lon="4.80589">
        <ele>36.8</ele>
        <time>2022-10-16T06:48:42Z</time>
      </trkpt>
      <trkpt lat="43.72144" lon="4.80588">
        <ele>36.7</ele>
        <time>2022-10-16T06:50:28Z</time>
      </trkpt>
      <trkpt lat="43.72128" lon="4.80587">
        <ele>36.5</ele>
        <time>2022-10-16T06:50:45Z</time>
      </trkpt>
      <trkpt lat="43.72111" lon="4.80582">
        <ele>36.3</ele>
        <time>2022-10-16T06:51:03Z</time>
      </trkpt>
      <trkpt lat="43.72111" lon="4.80567">
        <ele>36</ele>
        <time>2022-10-16T06:51:17Z</time>
      </trkpt>
      <trkpt lat="43.72094" lon="4.80557">
        <ele>35.5</ele>
        <time>2022-10-16T06:51:36Z</time>
      </trkpt>
      <trkpt lat="43.72098" lon="4.80535">
        <ele>35.1</ele>
      </trkpt>
      <trkpt lat="43.72114" lon="4.80527">
        <ele>35.3</ele>
      </trkpt>
      <trkpt lat="43.72141" lon="4.80515">
        <ele>35.6</ele>
        <time>2022-10-16T06:56:03Z</time>
      </trkpt>
      <trkpt lat="43.72139" lon="4.80506">
        <ele>35.4</ele>
        <time>2022-10-16T06:56:15Z</time>
      </trkpt>
      <trkpt lat="43.72154" lon="4.80506">
        <ele>35.8</ele>
        <time>2022-10-16T06:56:25Z</time>
      </trkpt>
      <trkpt lat="43.72158" lon="4.80507">
        <ele>35.9</ele>
        <time>2022-10-16T06:56:29Z</time>
      </trkpt>
      <trkpt lat="43.72161" lon="4.80509">
        <ele>36</ele>
        <time>2022-10-16T06:56:33Z</time>
      </trkpt>
      <trkpt lat="43.72175" lon="4.80512">
        <ele>36.2</ele>
        <time>2022-10-16T06:56:46Z</time>
      </trkpt>
      <trkpt lat="43.7218" lon="4.80515">
        <ele>36.3</ele>
        <time>2022-10-16T06:57:03Z</time>
      </trkpt>
      <trkpt lat="43.72183" lon="4.80509">
        <ele>36.3</ele>
        <time>2022-10-16T06:57:10Z</time>
      </trkpt>
      <trkpt lat="43.72196" lon="4.80469">
        <ele>36.1</ele>
        <time>2022-10-16T06:57:40Z</time>
      </trkpt>
      <trkpt lat="43.72194" lon="4.80464">
        <ele>36</ele>
        <time>2022-10-16T06:57:47Z</time>
      </trkpt>
      <trkpt lat="43.722" lon="4.80443">
        <ele>36</ele>
        <time>2022-10-16T06:58:05Z</time>
      </trkpt>
      <trkpt lat="43.72204" lon="4.80435">
        <ele>36</ele>
      </trkpt>
      <trkpt lat="43.72213" lon="4.80438">
        <ele>36.2</ele>
        <time>2022-10-16T06:59:18Z</time>
      </trkpt>
      <trkpt lat="43.7224" lon="4.80446">
        <ele>36.8</ele>
        <time>2022-10-16T06:59:41Z</time>
      </trkpt>
      <trkpt lat="43.72262" lon="4.80467">
        <ele>36.9</ele>
        <time>2022-10-16T07:00:16Z</time>
      </trkpt>
      <trkpt lat="43.72254" lon="4.80448">
        <ele>37</ele>
        <time>2022-10-16T07:00:42Z</time>
      </trkpt>
      <trkpt lat="43.72254" lon="4.80427">
        <ele>37</ele>
        <time>2022-10-16T07:01:29Z</time>
      </trkpt>
      <trkpt lat="43.72263" lon="4.80392">
        <ele>36.7</ele>
        <time>2022-10-16T07:01:46Z</time>
      </trkpt>
      <trkpt lat="43.7227" lon="4.80387">
        <ele>36.7</ele>
        <time>2022-10-16T07:02:05Z</time>
      </trkpt>
      <trkpt lat="43.72276" lon="4.80387">
        <ele>36.8</ele>
      </trkpt>
      <trkpt lat="43.7228" lon="4.80389">
        <ele>36.8</ele>
      </trkpt>
      <trkpt lat="43.72282" lon="4.80392">
        <ele>36.8</ele>
        <time>2022-10-16T07:02:33Z</time>
      </trkpt>
      <trkpt lat="43.72286" lon="4.80395">
        <ele>36.9</ele>
      </trkpt>
      <trkpt lat="43.72296" lon="4.80398">
        <ele>36.9</ele>
      </trkpt>
      <trkpt lat="43.72307" lon="4.80406">
        <ele>37</ele>
        <time>2022-10-16T07:04:23Z</time>
      </trkpt>
      <trkpt lat="43.72312" lon="4.80423">
        <ele>36.9</ele>
        <time>2022-10-16T07:04:38Z</time>
      </trkpt>
      <trkpt lat="43.72323" lon="4.80436">
        <ele>36.8</ele>
        <time>2022-10-16T07:04:58Z</time>
      </trkpt>
      <trkpt lat="43.72326" lon="4.80446">
        <ele>36.7</ele>
        <time>2022-10-16T07:05:07Z</time>
      </trkpt>
      <trkpt lat="43.72327" lon="4.8046">
        <ele>36.5</ele>
        <time>2022-10-16T07:05:20Z</time>
      </trkpt>
      <trkpt lat="43.72334" lon="4.80461">
        <ele>36.5</ele>
        <time>2022-10-16T07:05:33Z</time>
      </trkpt>
      <trkpt lat="43.72347" lon="4.80447">
        <ele>36.9</ele>
        <time>2022-10-16T07:05:49Z</time>
      </trkpt>
      <trkpt lat="43.72355" lon="4.80444">
        <ele>37</ele>
        <time>2022-10-16T07:06:04Z</time>
      </trkpt>
      <trkpt lat="43.72377" lon="4.8043">
        <ele>37.4</ele>
        <time>2022-10-16T07:06:22Z</time>
      </trkpt>
      <trkpt lat="43.72386" lon="4.80385">
        <ele>37.6</ele>
        <time>2022-10-16T07:10:48Z</time>
      </trkpt>
      <trkpt lat="43.72387" lon="4.80349">
        <ele>37.6</ele>
        <time>2022-10-16T07:11:15Z</time>
      </trkpt>
      <trkpt lat="43.72418" lon="4.80366">
        <ele>38</ele>
        <time>2022-10-16T07:11:47Z</time>
      </trkpt>
      <trkpt lat="43.72431" lon="4.80372">
        <ele>38.4</ele>
      </trkpt>
      <trkpt lat="43.72435" lon="4.80373">
        <ele>38.5</ele>
        <time>2022-10-16T07:11:58Z</time>
      </trkpt>
      <trkpt lat="43.72457" lon="4.80383">
        <ele>39.2</ele>
      </trkpt>
      <trkpt lat="43.72471" lon="4.80385">
        <ele>39.7</ele>
        <time>2022-10-16T07:12:37Z</time>
      </trkpt>
      <trkpt lat="43.72481" lon="4.8028">
        <ele>39.9</ele>
      </trkpt>
      <trkpt lat="43.7251" lon="4.80279">
        <ele>40.9</ele>
        <time>2022-10-16T07:14:41Z</time>
      </trkpt>
      <trkpt lat="43.72539" lon="4.80277">
        <ele>41.6</ele>
        <time>2022-10-16T07:15:11Z</time>
      </trkpt>
      <trkpt lat="43.72573" lon="4.80268">
        <ele>42.5</ele>
      </trkpt>
      <trkpt lat="43.72608" lon="4.80258">
        <ele>44.6</ele>
        <time>2022-10-16T07:16:11Z</time>
      </trkpt>
      <trkpt lat="43.72651" lon="4.80272">
        <ele>47.2</ele>
        <time>2022-10-16T07:16:50Z</time>
      </trkpt>
      <trkpt lat="43.72673" lon="4.80276">
        <ele>48.7</ele>
      </trkpt>
      <trkpt lat="43.72697" lon="4.80271">
        <ele>51.3</ele>
      </trkpt>
      <trkpt lat="43.72697" lon="4.80265">
        <ele>51.8</ele>
      </trkpt>
      <trkpt lat="43.72696" lon="4.80258">
        <ele>52</ele>
        <time>2022-10-16T07:18:01Z</time>
      </trkpt>
      <trkpt lat="43.72692" lon="4.8024">
        <ele>52.9</ele>
        <time>2022-10-16T07:18:19Z</time>
      </trkpt>
      <trkpt lat="43.7269" lon="4.80226">
        <ele>53.8</ele>
      </trkpt>
      <trkpt lat="43.72687" lon="4.80164">
        <ele>58.5</ele>
      </trkpt>
      <trkpt lat="43.72682" lon="4.80128">
        <ele>58.9</ele>
      </trkpt>
      <trkpt lat="43.72677" lon="4.80102">
        <ele>59</ele>
        <time>2022-10-16T07:25:34Z</time>
      </trkpt>
      <trkpt lat="43.72675" lon="4.80081">
        <ele>59.4</ele>
      </trkpt>
      <trkpt lat="43.72675" lon="4.80062">
        <ele>59.6</ele>
        <time>2022-10-16T07:25:55Z</time>
      </trkpt>
      <trkpt lat="43.72679" lon="4.80037">
        <ele>60.7</ele>
        <time>2022-10-16T07:26:19Z</time>
      </trkpt>
      <trkpt lat="43.72681" lon="4.80015">
        <ele>61.4</ele>
        <time>2022-10-16T07:26:40Z</time>
      </trkpt>
      <trkpt lat="43.72681" lon="4.79996">
        <ele>61.3</ele>
        <time>2022-10-16T07:26:58Z</time>
      </trkpt>
      <trkpt lat="43.72682" lon="4.79958">
        <ele>59.5</ele>
        <time>2022-10-16T07:27:21Z</time>
      </trkpt>
      <trkpt lat="43.72684" lon="4.79921">
        <ele>58</ele>
      </trkpt>
      <trkpt lat="43.72689" lon="4.79913">
        <ele>58.4</ele>
      </trkpt>
      <trkpt lat="43.72692" lon="4.79907">
        <ele>58.9</ele>
      </trkpt>
      <trkpt lat="43.72697" lon="4.79889">
        <ele>59.5</ele>
      </trkpt>
      <trkpt lat="43.72706" lon="4.79883">
        <ele>60.7</ele>
        <time>2022-10-16T07:28:33Z</time>
      </trkpt>
      <trkpt lat="43.72712" lon="4.79876">
        <ele>61.5</ele>
      </trkpt>
      <trkpt lat="43.72713" lon="4.79864">
        <ele>61.5</ele>
      </trkpt>
      <trkpt lat="43.72716" lon="4.79847">
        <ele>61.7</ele>
        <time>2022-10-16T07:28:57Z</time>
      </trkpt>
      <trkpt lat="43.72719" lon="4.79834">
        <ele>61.9</ele>
      </trkpt>
      <trkpt lat="43.72726" lon="4.79828">
        <ele>63</ele>
        <time>2022-10-16T07:29:15Z</time>
      </trkpt>
      <trkpt lat="43.72727" lon="4.79809">
        <ele>63.7</ele>
      </trkpt>
      <trkpt lat="43.72737" lon="4.79779">
        <ele>66.2</ele>
      </trkpt>
      <trkpt lat="43.72752" lon="4.79736">
        <ele>69.8</ele>
        <time>2022-10-16T07:30:01Z</time>
      </trkpt>
      <trkpt lat="43.72769" lon="4.79711">
        <ele>71.5</ele>
        <time>2022-10-16T07:30:54Z</time>
      </trkpt>
      <trkpt lat="43.72777" lon="4.79679">
        <ele>72.3</ele>
        <time>2022-10-16T07:31:47Z</time>
      </trkpt>
      <trkpt lat="43.72784" lon="4.79656">
        <ele>73</ele>
      </trkpt>
      <trkpt lat="43.72791" lon="4.79628">
        <ele>73.6</ele>
      </trkpt>
      <trkpt lat="43.72796" lon="4.79617">
        <ele>74.4</ele>
      </trkpt>
      <trkpt lat="43.728" lon="4.79611">
        <ele>75.3</ele>
      </trkpt>
      <trkpt lat="43.72807" lon="4.79615">
        <ele>76.7</ele>
      </trkpt>
      <trkpt lat="43.72811" lon="4.79595">
        <ele>77.6</ele>
        <time>2022-10-16T07:32:43Z</time>
      </trkpt>
      <trkpt lat="43.72816" lon="4.79579">
        <ele>78.8</ele>
        <time>2022-10-16T07:32:57Z</time>
      </trkpt>
      <trkpt lat="43.72816" lon="4.79555">
        <ele>78.8</ele>
        <time>2022-10-16T07:33:14Z</time>
      </trkpt>
      <trkpt lat="43.72813" lon="4.79539">
        <ele>78</ele>
      </trkpt>
      <trkpt lat="43.72813" lon="4.79523">
        <ele>78.1</ele>
        <time>2022-10-16T07:33:46Z</time>
      </trkpt>
      <trkpt lat="43.72811" lon="4.79514">
        <ele>77.6</ele>
        <time>2022-10-16T07:34:09Z</time>
      </trkpt>
      <trkpt lat="43.72795" lon="4.79492">
        <ele>73.7</ele>
        <time>2022-10-16T07:34:31Z</time>
      </trkpt>
      <trkpt lat="43.72764" lon="4.79483">
        <ele>66.2</ele>
        <time>2022-10-16T07:35:05Z</time>
      </trkpt>
      <trkpt lat="43.72756" lon="4.79479">
        <ele>64.4</ele>
        <time>2022-10-16T07:35:22Z</time>
      </trkpt>
      <trkpt lat="43.72743" lon="4.79422">
        <ele>61.6</ele>
        <time>2022-10-16T07:36:28Z</time>
      </trkpt>
      <trkpt lat="43.7275" lon="4.79448">
        <ele>63</ele>
      </trkpt>
      <trkpt lat="43.72783" lon="4.79455">
        <ele>70.6</ele>
        <time>2022-10-16T07:38:43Z</time>
      </trkpt>
      <trkpt lat="43.728" lon="4.79464">
        <ele>74.6</ele>
        <time>2022-10-16T07:39:02Z</time>
      </trkpt>
      <trkpt lat="43.72809" lon="4.79472">
        <ele>77</ele>
        <time>2022-10-16T07:39:14Z</time>
      </trkpt>
      <trkpt lat="43.7281" lon="4.79488">
        <ele>77.3</ele>
      </trkpt>
      <trkpt lat="43.72814" lon="4.79501">
        <ele>78.4</ele>
      </trkpt>
      <trkpt lat="43.72812" lon="4.79526">
        <ele>77.8</ele>
        <time>2022-10-16T07:39:51Z</time>
      </trkpt>
      <trkpt lat="43.72814" lon="4.79543">
        <ele>78.3</ele>
      </trkpt>
      <trkpt lat="43.72816" lon="4.79552">
        <ele>78.7</ele>
        <time>2022-10-16T07:40:02Z</time>
      </trkpt>
      <trkpt lat="43.72823" lon="4.7955">
        <ele>80.6</ele>
        <time>2022-10-16T07:40:07Z</time>
      </trkpt>
      <trkpt lat="43.72837" lon="4.79547">
        <ele>83.4</ele>
        <time>2022-10-16T07:40:26Z</time>
      </trkpt>
      <trkpt lat="43.72843" lon="4.79543">
        <ele>84.2</ele>
        <time>2022-10-16T07:40:41Z</time>
      </trkpt>
      <trkpt lat="43.72854" lon="4.79539">
        <ele>85.5</ele>
      </trkpt>
      <trkpt lat="43.72864" lon="4.79531">
        <ele>86.9</ele>
      </trkpt>
      <trkpt lat="43.7288" lon="4.79526">
        <ele>88.9</ele>
        <time>2022-10-16T07:41:46Z</time>
      </trkpt>
      <trkpt lat="43.72888" lon="4.79536">
        <ele>89.9</ele>
        <time>2022-10-16T07:42:06Z</time>
      </trkpt>
      <trkpt lat="43.72893" lon="4.7954">
        <ele>90.6</ele>
        <time>2022-10-16T07:42:25Z</time>
      </trkpt>
      <trkpt lat="43.72895" lon="4.79539">
        <ele>90.8</ele>
      </trkpt>
      <trkpt lat="43.72899" lon="4.7954">
        <ele>91.3</ele>
      </trkpt>
      <trkpt lat="43.72905" lon="4.79555">
        <ele>91.9</ele>
      </trkpt>
      <trkpt lat="43.72915" lon="4.79575">
        <ele>92.9</ele>
        <time>2022-10-16T07:43:03Z</time>
      </trkpt>
      <trkpt lat="43.72916" lon="4.7958">
        <ele>92.9</ele>
      </trkpt>
      <trkpt lat="43.72918" lon="4.79584">
        <ele>93.3</ele>
      </trkpt>
      <trkpt lat="43.72924" lon="4.79592">
        <ele>94.4</ele>
      </trkpt>
      <trkpt lat="43.72925" lon="4.79598">
        <ele>94.9</ele>
      </trkpt>
      <trkpt lat="43.72927" lon="4.79598">
        <ele>95.2</ele>
        <time>2022-10-16T07:43:44Z</time>
      </trkpt>
      <trkpt lat="43.72934" lon="4.79606">
        <ele>96.8</ele>
      </trkpt>
      <trkpt lat="43.72943" lon="4.7961">
        <ele>98.6</ele>
        <time>2022-10-16T07:44:07Z</time>
      </trkpt>
      <trkpt lat="43.7297" lon="4.79623">
        <ele>104.4</ele>
        <time>2022-10-16T07:44:50Z</time>
      </trkpt>
      <trkpt lat="43.7298" lon="4.79632">
        <ele>106.7</ele>
        <time>2022-10-16T07:45:12Z</time>
      </trkpt>
      <trkpt lat="43.73003" lon="4.79639">
        <ele>111.4</ele>
        <time>2022-10-16T07:45:53Z</time>
      </trkpt>
      <trkpt lat="43.73008" lon="4.79638">
        <ele>111.9</ele>
      </trkpt>
      <trkpt lat="43.73015" lon="4.79642">
        <ele>112.8</ele>
        <time>2022-10-16T07:46:37Z</time>
      </trkpt>
      <trkpt lat="43.73024" lon="4.79631">
        <ele>113.7</ele>
      </trkpt>
      <trkpt lat="43.73039" lon="4.79614">
        <ele>115.6</ele>
      </trkpt>
      <trkpt lat="43.73045" lon="4.7961">
        <ele>116.5</ele>
      </trkpt>
      <trkpt lat="43.73054" lon="4.79584">
        <ele>118.1</ele>
      </trkpt>
      <trkpt lat="43.73073" lon="4.79561">
        <ele>121.2</ele>
        <time>2022-10-16T07:51:17Z</time>
      </trkpt>
      <trkpt lat="43.73074" lon="4.79551">
        <ele>121.5</ele>
        <time>2022-10-16T07:51:40Z</time>
      </trkpt>
      <trkpt lat="43.73081" lon="4.79533">
        <ele>122.6</ele>
      </trkpt>
      <trkpt lat="43.73091" lon="4.79518">
        <ele>123.8</ele>
      </trkpt>
      <trkpt lat="43.73096" lon="4.79503">
        <ele>124.4</ele>
        <time>2022-10-16T07:59:36Z</time>
      </trkpt>
      <trkpt lat="43.73103" lon="4.79467">
        <ele>122.2</ele>
      </trkpt>
      <trkpt lat="43.73109" lon="4.79446">
        <ele>121</ele>
        <time>2022-10-16T08:00:11Z</time>
      </trkpt>
      <trkpt lat="43.73113" lon="4.79439">
        <ele>120.8</ele>
      </trkpt>
      <trkpt lat="43.73116" lon="4.79435">
        <ele>120.8</ele>
      </trkpt>
      <trkpt lat="43.73118" lon="4.79434">
        <ele>120.9</ele>
        <time>2022-10-16T08:00:27Z</time>
      </trkpt>
      <trkpt lat="43.73123" lon="4.79431">
        <ele>121</ele>
      </trkpt>
      <trkpt lat="43.73127" lon="4.79423">
        <ele>120.7</ele>
      </trkpt>
      <trkpt lat="43.7313" lon="4.79413">
        <ele>119.9</ele>
      </trkpt>
      <trkpt lat="43.73137" lon="4.79387">
        <ele>116.3</ele>
        <time>2022-10-16T08:00:57Z</time>
      </trkpt>
      <trkpt lat="43.73141" lon="4.79346">
        <ele>110.4</ele>
      </trkpt>
      <trkpt lat="43.73145" lon="4.79327">
        <ele>108.9</ele>
      </trkpt>
      <trkpt lat="43.73147" lon="4.79311">
        <ele>109.2</ele>
      </trkpt>
      <trkpt lat="43.7315" lon="4.79293">
        <ele>109.8</ele>
        <time>2022-10-16T08:02:10Z</time>
      </trkpt>
      <trkpt lat="43.73156" lon="4.79278">
        <ele>110.9</ele>
      </trkpt>
      <trkpt lat="43.73162" lon="4.79273">
        <ele>111.9</ele>
        <time>2022-10-16T08:02:38Z</time>
      </trkpt>
      <trkpt lat="43.7318" lon="4.79256">
        <ele>115.6</ele>
      </trkpt>
      <trkpt lat="43.73189" lon="4.7925">
        <ele>117.6</ele>
      </trkpt>
      <trkpt lat="43.73199" lon="4.79239">
        <ele>120.5</ele>
      </trkpt>
      <trkpt lat="43.73202" lon="4.79229">
        <ele>122.1</ele>
      </trkpt>
      <trkpt lat="43.73218" lon="4.79165">
        <ele>130.9</ele>
      </trkpt>
      <trkpt lat="43.73226" lon="4.79134">
        <ele>130.7</ele>
      </trkpt>
      <trkpt lat="43.73234" lon="4.79121">
        <ele>131.5</ele>
        <time>2022-10-16T08:05:59Z</time>
      </trkpt>
      <trkpt lat="43.73247" lon="4.79104">
        <ele>132.8</ele>
      </trkpt>
      <trkpt lat="43.73259" lon="4.79084">
        <ele>134.1</ele>
      </trkpt>
      <trkpt lat="43.73267" lon="4.7908">
        <ele>135.2</ele>
      </trkpt>
      <trkpt lat="43.73272" lon="4.79073">
        <ele>135.4</ele>
        <time>2022-10-16T08:06:59Z</time>
      </trkpt>
      <trkpt lat="43.73275" lon="4.79066">
        <ele>135.2</ele>
      </trkpt>
      <trkpt lat="43.73277" lon="4.79056">
        <ele>134.3</ele>
        <time>2022-10-16T08:07:17Z</time>
      </trkpt>
      <trkpt lat="43.73279" lon="4.79046">
        <ele>133.6</ele>
        <time>2022-10-16T08:07:27Z</time>
      </trkpt>
      <trkpt lat="43.73287" lon="4.79024">
        <ele>132.7</ele>
      </trkpt>
      <trkpt lat="43.73296" lon="4.79002">
        <ele>132.2</ele>
        <time>2022-10-16T08:11:12Z</time>
      </trkpt>
      <trkpt lat="43.73303" lon="4.7899">
        <ele>133.1</ele>
        <time>2022-10-16T08:11:29Z</time>
      </trkpt>
      <trkpt lat="43.73321" lon="4.78977">
        <ele>135.9</ele>
        <time>2022-10-16T08:11:48Z</time>
      </trkpt>
      <trkpt lat="43.73335" lon="4.78972">
        <ele>138.1</ele>
        <time>2022-10-16T08:12:06Z</time>
      </trkpt>
      <trkpt lat="43.7335" lon="4.78972">
        <ele>139.3</ele>
      </trkpt>
      <trkpt lat="43.73356" lon="4.78967">
        <ele>139.3</ele>
      </trkpt>
      <trkpt lat="43.73365" lon="4.78953">
        <ele>138.9</ele>
      </trkpt>
      <trkpt lat="43.73365" lon="4.78942">
        <ele>138</ele>
      </trkpt>
      <trkpt lat="43.73365" lon="4.78933">
        <ele>137.2</ele>
        <time>2022-10-16T08:12:55Z</time>
      </trkpt>
      <trkpt lat="43.73366" lon="4.78921">
        <ele>136.2</ele>
        <time>2022-10-16T08:13:14Z</time>
      </trkpt>
      <trkpt lat="43.73369" lon="4.7891">
        <ele>136.7</ele>
        <time>2022-10-16T08:13:17Z</time>
      </trkpt>
      <trkpt lat="43.73375" lon="4.78915">
        <ele>137</ele>
        <time>2022-10-16T08:13:22Z</time>
      </trkpt>
      <trkpt lat="43.73401" lon="4.7894">
        <ele>141.5</ele>
        <time>2022-10-16T08:13:58Z</time>
      </trkpt>
      <trkpt lat="43.7345" lon="4.78976">
        <ele>140.3</ele>
        <time>2022-10-16T08:14:58Z</time>
      </trkpt>
      <trkpt lat="43.73464" lon="4.78986">
        <ele>138.2</ele>
      </trkpt>
      <trkpt lat="43.73479" lon="4.78995">
        <ele>135.7</ele>
      </trkpt>
      <trkpt lat="43.73483" lon="4.78996">
        <ele>135</ele>
      </trkpt>
      <trkpt lat="43.73488" lon="4.79003">
        <ele>134.1</ele>
      </trkpt>
      <trkpt lat="43.7349" lon="4.7901">
        <ele>133.8</ele>
        <time>2022-10-16T08:15:43Z</time>
      </trkpt>
      <trkpt lat="43.73497" lon="4.79019">
        <ele>132.8</ele>
      </trkpt>
      <trkpt lat="43.73501" lon="4.79031">
        <ele>132.3</ele>
        <time>2022-10-16T08:16:07Z</time>
      </trkpt>
      <trkpt lat="43.7351" lon="4.79057">
        <ele>131.7</ele>
        <time>2022-10-16T08:16:28Z</time>
      </trkpt>
      <trkpt lat="43.73524" lon="4.79061">
        <ele>130.2</ele>
      </trkpt>
      <trkpt lat="43.7354" lon="4.79066">
        <ele>128.5</ele>
        <time>2022-10-16T08:16:50Z</time>
      </trkpt>
      <trkpt lat="43.73558" lon="4.79074">
        <ele>126.4</ele>
        <time>2022-10-16T08:17:08Z</time>
      </trkpt>
      <trkpt lat="43.73571" lon="4.79078">
        <ele>124.7</ele>
        <time>2022-10-16T08:17:21Z</time>
      </trkpt>
      <trkpt lat="43.7358" lon="4.7908">
        <ele>123.5</ele>
      </trkpt>
      <trkpt lat="43.73589" lon="4.79084">
        <ele>122.8</ele>
        <time>2022-10-16T08:17:38Z</time>
      </trkpt>
      <trkpt lat="43.73605" lon="4.79089">
        <ele>122.2</ele>
        <time>2022-10-16T08:17:55Z</time>
      </trkpt>
      <trkpt lat="43.73617" lon="4.79093">
        <ele>121.8</ele>
      </trkpt>
      <trkpt lat="43.73629" lon="4.79092">
        <ele>121.5</ele>
      </trkpt>
      <trkpt lat="43.73655" lon="4.79088">
        <ele>121</ele>
        <time>2022-10-16T08:18:39Z</time>
      </trkpt>
      <trkpt lat="43.73673" lon="4.79086">
        <ele>120.5</ele>
        <time>2022-10-16T08:18:58Z</time>
      </trkpt>
      <trkpt lat="43.73678" lon="4.79085">
        <ele>120.3</ele>
      </trkpt>
      <trkpt lat="43.73684" lon="4.79082">
        <ele>120.3</ele>
        <time>2022-10-16T08:19:04Z</time>
      </trkpt>
      <trkpt lat="43.73698" lon="4.79083">
        <ele>119.6</ele>
        <time>2022-10-16T08:19:21Z</time>
      </trkpt>
      <trkpt lat="43.73732" lon="4.79084">
        <ele>117.8</ele>
        <time>2022-10-16T08:19:55Z</time>
      </trkpt>
      <trkpt lat="43.73755" lon="4.79084">
        <ele>116.5</ele>
      </trkpt>
      <trkpt lat="43.73778" lon="4.79081">
        <ele>114.5</ele>
        <time>2022-10-16T08:20:35Z</time>
      </trkpt>
      <trkpt lat="43.73802" lon="4.79082">
        <ele>112.1</ele>
      </trkpt>
      <trkpt lat="43.73806" lon="4.79085">
        <ele>111.6</ele>
        <time>2022-10-16T08:22:24Z</time>
      </trkpt>
      <trkpt lat="43.73813" lon="4.79104">
        <ele>109.9</ele>
        <time>2022-10-16T08:22:39Z</time>
      </trkpt>
      <trkpt lat="43.73819" lon="4.79119">
        <ele>108.5</ele>
      </trkpt>
      <trkpt lat="43.73825" lon="4.79135">
        <ele>107.2</ele>
        <time>2022-10-16T08:23:07Z</time>
      </trkpt>
      <trkpt lat="43.73837" lon="4.79159">
        <ele>105.5</ele>
        <time>2022-10-16T08:23:27Z</time>
      </trkpt>
      <trkpt lat="43.73855" lon="4.7917">
        <ele>105.4</ele>
        <time>2022-10-16T08:23:46Z</time>
      </trkpt>
      <trkpt lat="43.73883" lon="4.79176">
        <ele>106</ele>
        <time>2022-10-16T08:24:20Z</time>
      </trkpt>
      <trkpt lat="43.73912" lon="4.7919">
        <ele>106.6</ele>
        <time>2022-10-16T08:24:52Z</time>
      </trkpt>
      <trkpt lat="43.73916" lon="4.7919">
        <ele>106.7</ele>
        <time>2022-10-16T08:25:01Z</time>
      </trkpt>
      <trkpt lat="43.73927" lon="4.79197">
        <ele>108.3</ele>
      </trkpt>
      <trkpt lat="43.73932" lon="4.79209">
        <ele>109.2</ele>
      </trkpt>
      <trkpt lat="43.73937" lon="4.79219">
        <ele>110.1</ele>
      </trkpt>
      <trkpt lat="43.73943" lon="4.79247">
        <ele>111.1</ele>
      </trkpt>
      <trkpt lat="43.7395" lon="4.79276">
        <ele>111.8</ele>
      </trkpt>
      <trkpt lat="43.73958" lon="4.79299">
        <ele>113</ele>
      </trkpt>
      <trkpt lat="43.73974" lon="4.7933">
        <ele>115.7</ele>
      </trkpt>
      <trkpt lat="43.73977" lon="4.79352">
        <ele>115.6</ele>
      </trkpt>
      <trkpt lat="43.73977" lon="4.79378">
        <ele>114.4</ele>
      </trkpt>
      <trkpt lat="43.73985" lon="4.79414">
        <ele>114.6</ele>
      </trkpt>
      <trkpt lat="43.73988" lon="4.79419">
        <ele>115.2</ele>
      </trkpt>
      <trkpt lat="43.73999" lon="4.79422">
        <ele>117.5</ele>
      </trkpt>
      <trkpt lat="43.74019" lon="4.79419">
        <ele>123.5</ele>
        <time>2022-10-16T08:29:19Z</time>
      </trkpt>
      <trkpt lat="43.74044" lon="4.79406">
        <ele>132</ele>
      </trkpt>
      <trkpt lat="43.74058" lon="4.79408">
        <ele>136.2</ele>
      </trkpt>
      <trkpt lat="43.74064" lon="4.79405">
        <ele>138</ele>
      </trkpt>
      <trkpt lat="43.74068" lon="4.79406">
        <ele>139.4</ele>
        <time>2022-10-16T08:33:15Z</time>
      </trkpt>
      <trkpt lat="43.74075" lon="4.79423">
        <ele>139.4</ele>
      </trkpt>
      <trkpt lat="43.74083" lon="4.79438">
        <ele>139.3</ele>
        <time>2022-10-16T08:33:30Z</time>
      </trkpt>
      <trkpt lat="43.74111" lon="4.79473">
        <ele>139.5</ele>
      </trkpt>
      <trkpt lat="43.74116" lon="4.79481">
        <ele>139.2</ele>
      </trkpt>
      <trkpt lat="43.74126" lon="4.79497">
        <ele>138.3</ele>
        <time>2022-10-16T08:34:30Z</time>
      </trkpt>
      <trkpt lat="43.74136" lon="4.79496">
        <ele>140.5</ele>
      </trkpt>
      <trkpt lat="43.74131" lon="4.79478">
        <ele>143</ele>
      </trkpt>
      <trkpt lat="43.74126" lon="4.79455">
        <ele>146.4</ele>
        <time>2022-10-16T08:53:02Z</time>
      </trkpt>
      <trkpt lat="43.7412" lon="4.79437">
        <ele>148.4</ele>
        <time>2022-10-16T08:53:12Z</time>
      </trkpt>
      <trkpt lat="43.74116" lon="4.79425">
        <ele>149.5</ele>
      </trkpt>
      <trkpt lat="43.74111" lon="4.79416">
        <ele>150</ele>
        <time>2022-10-16T08:53:27Z</time>
      </trkpt>
      <trkpt lat="43.74104" lon="4.79401">
        <ele>149.9</ele>
      </trkpt>
      <trkpt lat="43.74098" lon="4.79387">
        <ele>150.1</ele>
      </trkpt>
      <trkpt lat="43.7409" lon="4.79361">
        <ele>150.3</ele>
        <time>2022-10-16T08:53:55Z</time>
      </trkpt>
      <trkpt lat="43.74081" lon="4.79345">
        <ele>149.2</ele>
        <time>2022-10-16T08:54:14Z</time>
      </trkpt>
      <trkpt lat="43.74074" lon="4.79334">
        <ele>147.6</ele>
        <time>2022-10-16T08:54:24Z</time>
      </trkpt>
      <trkpt lat="43.7406" lon="4.79315">
        <ele>142.5</ele>
        <time>2022-10-16T08:54:41Z</time>
      </trkpt>
      <trkpt lat="43.74057" lon="4.79306">
        <ele>141.5</ele>
      </trkpt>
      <trkpt lat="43.74058" lon="4.79292">
        <ele>141.7</ele>
      </trkpt>
      <trkpt lat="43.74062" lon="4.79277">
        <ele>143</ele>
        <time>2022-10-16T08:57:35Z</time>
      </trkpt>
      <trkpt lat="43.7407" lon="4.7925">
        <ele>145.5</ele>
      </trkpt>
      <trkpt lat="43.74083" lon="4.79225">
        <ele>147.4</ele>
        <time>2022-10-16T08:58:29Z</time>
      </trkpt>
      <trkpt lat="43.74087" lon="4.7921">
        <ele>147</ele>
      </trkpt>
      <trkpt lat="43.74093" lon="4.79203">
        <ele>147.6</ele>
      </trkpt>
      <trkpt lat="43.74101" lon="4.79198">
        <ele>148.8</ele>
        <time>2022-10-16T08:58:58Z</time>
      </trkpt>
      <trkpt lat="43.74107" lon="4.79194">
        <ele>149.5</ele>
      </trkpt>
      <trkpt lat="43.74121" lon="4.79191">
        <ele>152.1</ele>
      </trkpt>
      <trkpt lat="43.74129" lon="4.79188">
        <ele>153.2</ele>
      </trkpt>
      <trkpt lat="43.74143" lon="4.79189">
        <ele>156.2</ele>
        <time>2022-10-16T08:59:52Z</time>
      </trkpt>
      <trkpt lat="43.74155" lon="4.7919">
        <ele>159</ele>
        <time>2022-10-16T09:00:06Z</time>
      </trkpt>
      <trkpt lat="43.7422" lon="4.79234">
        <ele>175.4</ele>
      </trkpt>
      <trkpt lat="43.74288" lon="4.7928">
        <ele>178</ele>
        <time>2022-10-16T09:02:57Z</time>
      </trkpt>
      <trkpt lat="43.7431" lon="4.79293">
        <ele>175.2</ele>
        <time>2022-10-16T09:03:16Z</time>
      </trkpt>
      <trkpt lat="43.74328" lon="4.79269">
        <ele>161.1</ele>
        <time>2022-10-16T09:07:25Z</time>
      </trkpt>
      <trkpt lat="43.74346" lon="4.79286">
        <ele>162.2</ele>
        <time>2022-10-16T09:07:54Z</time>
      </trkpt>
      <trkpt lat="43.74392" lon="4.79285">
        <ele>150.2</ele>
        <time>2022-10-16T09:08:34Z</time>
      </trkpt>
      <trkpt lat="43.74402" lon="4.79272">
        <ele>143.5</ele>
        <time>2022-10-16T09:08:50Z</time>
      </trkpt>
      <trkpt lat="43.74405" lon="4.7926">
        <ele>138.9</ele>
        <time>2022-10-16T09:13:28Z</time>
      </trkpt>
      <trkpt lat="43.74406" lon="4.79224">
        <ele>132.3</ele>
        <time>2022-10-16T09:13:55Z</time>
      </trkpt>
      <trkpt lat="43.74411" lon="4.792">
        <ele>128.4</ele>
      </trkpt>
      <trkpt lat="43.74423" lon="4.79183">
        <ele>126.2</ele>
      </trkpt>
      <trkpt lat="43.74411" lon="4.7916">
        <ele>124.5</ele>
      </trkpt>
      <trkpt lat="43.74409" lon="4.79157">
        <ele>124.6</ele>
      </trkpt>
      <trkpt lat="43.74409" lon="4.79145">
        <ele>124.4</ele>
      </trkpt>
      <trkpt lat="43.74384" lon="4.79125">
        <ele>124.6</ele>
        <time>2022-10-16T09:16:22Z</time>
      </trkpt>
      <trkpt lat="43.74343" lon="4.79076">
        <ele>119.6</ele>
        <time>2022-10-16T09:17:10Z</time>
      </trkpt>
      <trkpt lat="43.74315" lon="4.79042">
        <ele>118.9</ele>
        <time>2022-10-16T09:17:49Z</time>
      </trkpt>
      <trkpt lat="43.74306" lon="4.79016">
        <ele>117.6</ele>
        <time>2022-10-16T09:18:11Z</time>
      </trkpt>
      <trkpt lat="43.7427" lon="4.78968">
        <ele>115.7</ele>
        <time>2022-10-16T09:18:58Z</time>
      </trkpt>
      <trkpt lat="43.74212" lon="4.78916">
        <ele>110.7</ele>
        <time>2022-10-16T09:20:04Z</time>
      </trkpt>
      <trkpt lat="43.74143" lon="4.78847">
        <ele>107.6</ele>
        <time>2022-10-16T09:22:27Z</time>
      </trkpt>
      <trkpt lat="43.74132" lon="4.78842">
        <ele>107</ele>
        <time>2022-10-16T09:22:39Z</time>
      </trkpt>
      <trkpt lat="43.74104" lon="4.78769">
        <ele>105.4</ele>
        <time>2022-10-16T09:23:54Z</time>
      </trkpt>
      <trkpt lat="43.74096" lon="4.78743">
        <ele>105</ele>
        <time>2022-10-16T09:24:13Z</time>
      </trkpt>
      <trkpt lat="43.74092" lon="4.78725">
        <ele>105.1</ele>
        <time>2022-10-16T09:24:31Z</time>
      </trkpt>
      <trkpt lat="43.74092" lon="4.78691">
        <ele>105.8</ele>
        <time>2022-10-16T09:24:53Z</time>
      </trkpt>
      <trkpt lat="43.74047" lon="4.78611">
        <ele>109.4</ele>
        <time>2022-10-16T09:25:58Z</time>
      </trkpt>
      <trkpt lat="43.74035" lon="4.78597">
        <ele>109.7</ele>
        <time>2022-10-16T09:26:13Z</time>
      </trkpt>
      <trkpt lat="43.74022" lon="4.78589">
        <ele>109</ele>
        <time>2022-10-16T09:26:32Z</time>
      </trkpt>
      <trkpt lat="43.74009" lon="4.78587">
        <ele>107.7</ele>
        <time>2022-10-16T09:26:43Z</time>
      </trkpt>
      <trkpt lat="43.73987" lon="4.78583">
        <ele>106.1</ele>
        <time>2022-10-16T09:27:14Z</time>
      </trkpt>
      <trkpt lat="43.73969" lon="4.78566">
        <ele>107.5</ele>
      </trkpt>
      <trkpt lat="43.7395" lon="4.78548">
        <ele>108.4</ele>
        <time>2022-10-16T09:27:30Z</time>
      </trkpt>
      <trkpt lat="43.73932" lon="4.78521">
        <ele>109.9</ele>
        <time>2022-10-16T09:28:03Z</time>
      </trkpt>
      <trkpt lat="43.73902" lon="4.78506">
        <ele>107.4</ele>
        <time>2022-10-16T09:28:34Z</time>
      </trkpt>
      <trkpt lat="43.73879" lon="4.78504">
        <ele>104.6</ele>
        <time>2022-10-16T09:29:01Z</time>
      </trkpt>
      <trkpt lat="43.73856" lon="4.78495">
        <ele>102.5</ele>
        <time>2022-10-16T09:29:18Z</time>
      </trkpt>
      <trkpt lat="43.73841" lon="4.78475">
        <ele>102.2</ele>
        <time>2022-10-16T09:29:39Z</time>
      </trkpt>
      <trkpt lat="43.73827" lon="4.78454">
        <ele>101.9</ele>
        <time>2022-10-16T09:29:54Z</time>
      </trkpt>
      <trkpt lat="43.73811" lon="4.78409">
        <ele>101.5</ele>
        <time>2022-10-16T09:30:11Z</time>
      </trkpt>
      <trkpt lat="43.73816" lon="4.78376">
        <ele>101.2</ele>
      </trkpt>
      <trkpt lat="43.73832" lon="4.78333">
        <ele>101.8</ele>
      </trkpt>
      <trkpt lat="43.73836" lon="4.78316">
        <ele>103</ele>
      </trkpt>
      <trkpt lat="43.73834" lon="4.78309">
        <ele>103</ele>
      </trkpt>
      <trkpt lat="43.73804" lon="4.78282">
        <ele>100.9</ele>
        <time>2022-10-16T09:34:16Z</time>
      </trkpt>
      <trkpt lat="43.73798" lon="4.78263">
        <ele>101.3</ele>
        <time>2022-10-16T09:34:34Z</time>
      </trkpt>
      <trkpt lat="43.73792" lon="4.78245">
        <ele>101.7</ele>
      </trkpt>
      <trkpt lat="43.73791" lon="4.78235">
        <ele>101.8</ele>
        <time>2022-10-16T09:34:50Z</time>
      </trkpt>
      <trkpt lat="43.73782" lon="4.78188">
        <ele>102.3</ele>
      </trkpt>
      <trkpt lat="43.73777" lon="4.78175">
        <ele>102</ele>
      </trkpt>
      <trkpt lat="43.73776" lon="4.78167">
        <ele>102.1</ele>
      </trkpt>
      <trkpt lat="43.73778" lon="4.78154">
        <ele>102.8</ele>
      </trkpt>
      <trkpt lat="43.73781" lon="4.78138">
        <ele>103.7</ele>
      </trkpt>
      <trkpt lat="43.73779" lon="4.78128">
        <ele>103.7</ele>
        <time>2022-10-16T09:36:53Z</time>
      </trkpt>
      <trkpt lat="43.73772" lon="4.78125">
        <ele>103</ele>
        <time>2022-10-16T09:36:58Z</time>
      </trkpt>
      <trkpt lat="43.73754" lon="4.7812">
        <ele>101.1</ele>
        <time>2022-10-16T09:37:12Z</time>
      </trkpt>
      <trkpt lat="43.73708" lon="4.78105">
        <ele>95.4</ele>
      </trkpt>
      <trkpt lat="43.73686" lon="4.78051">
        <ele>93</ele>
      </trkpt>
      <trkpt lat="43.7368" lon="4.78027">
        <ele>92.6</ele>
      </trkpt>
      <trkpt lat="43.73688" lon="4.78012">
        <ele>93.5</ele>
      </trkpt>
      <trkpt lat="43.73707" lon="4.7801">
        <ele>95</ele>
      </trkpt>
      <trkpt lat="43.73715" lon="4.78013">
        <ele>95.7</ele>
      </trkpt>
      <trkpt lat="43.73743" lon="4.7804">
        <ele>99.2</ele>
      </trkpt>
      <trkpt lat="43.73749" lon="4.78042">
        <ele>99.9</ele>
      </trkpt>
      <trkpt lat="43.73755" lon="4.78038">
        <ele>100.2</ele>
      </trkpt>
      <trkpt lat="43.73754" lon="4.78025">
        <ele>99.5</ele>
        <time>2022-10-16T09:39:09Z</time>
      </trkpt>
      <trkpt lat="43.73741" lon="4.7798">
        <ele>95.7</ele>
        <time>2022-10-16T09:39:43Z</time>
      </trkpt>
      <trkpt lat="43.73733" lon="4.77949">
        <ele>93</ele>
        <time>2022-10-16T09:40:03Z</time>
      </trkpt>
      <trkpt lat="43.73706" lon="4.77897">
        <ele>88.6</ele>
        <time>2022-10-16T09:40:43Z</time>
      </trkpt>
      <trkpt lat="43.73719" lon="4.77884">
        <ele>88</ele>
        <time>2022-10-16T09:43:55Z</time>
      </trkpt>
      <trkpt lat="43.73707" lon="4.77898">
        <ele>88.6</ele>
        <time>2022-10-16T09:44:03Z</time>
      </trkpt>
      <trkpt lat="43.73694" lon="4.77865">
        <ele>85.7</ele>
        <time>2022-10-16T09:44:39Z</time>
      </trkpt>
      <trkpt lat="43.73691" lon="4.77811">
        <ele>83.6</ele>
        <time>2022-10-16T11:04:56Z</time>
      </trkpt>
      <trkpt lat="43.73688" lon="4.77768">
        <ele>84.4</ele>
        <time>2022-10-16T11:05:27Z</time>
      </trkpt>
      <trkpt lat="43.73681" lon="4.77706">
        <ele>87.9</ele>
        <time>2022-10-16T11:06:08Z</time>
      </trkpt>
      <trkpt lat="43.7367" lon="4.77663">
        <ele>91</ele>
        <time>2022-10-16T11:06:39Z</time>
      </trkpt>
      <trkpt lat="43.73664" lon="4.77646">
        <ele>91.8</ele>
        <time>2022-10-16T11:06:54Z</time>
      </trkpt>
      <trkpt lat="43.73677" lon="4.77615">
        <ele>92.7</ele>
        <time>2022-10-16T11:07:24Z</time>
      </trkpt>
      <trkpt lat="43.73675" lon="4.77612">
        <ele>92.8</ele>
        <time>2022-10-16T11:07:29Z</time>
      </trkpt>
      <trkpt lat="43.73689" lon="4.77516">
        <ele>97.2</ele>
        <time>2022-10-16T11:09:32Z</time>
      </trkpt>
      <trkpt lat="43.73693" lon="4.77404">
        <ele>103.6</ele>
      </trkpt>
      <trkpt lat="43.73674" lon="4.77322">
        <ele>107.8</ele>
      </trkpt>
      <trkpt lat="43.73645" lon="4.77203">
        <ele>114.5</ele>
        <time>2022-10-16T11:13:49Z</time>
      </trkpt>
      <trkpt lat="43.73626" lon="4.77177">
        <ele>115.5</ele>
        <time>2022-10-16T11:14:10Z</time>
      </trkpt>
      <trkpt lat="43.73614" lon="4.77167">
        <ele>115.7</ele>
        <time>2022-10-16T11:14:31Z</time>
      </trkpt>
      <trkpt lat="43.7361" lon="4.77138">
        <ele>118.3</ele>
        <time>2022-10-16T11:14:41Z</time>
      </trkpt>
      <trkpt lat="43.73605" lon="4.77102">
        <ele>121.5</ele>
      </trkpt>
      <trkpt lat="43.73595" lon="4.77075">
        <ele>123.8</ele>
        <time>2022-10-16T11:15:00Z</time>
      </trkpt>
      <trkpt lat="43.73568" lon="4.77035">
        <ele>126.1</ele>
        <time>2022-10-16T11:15:17Z</time>
      </trkpt>
      <trkpt lat="43.73456" lon="4.76992">
        <ele>121.1</ele>
        <time>2022-10-16T11:19:31Z</time>
      </trkpt>
      <trkpt lat="43.73377" lon="4.76959">
        <ele>114.1</ele>
        <time>2022-10-16T11:21:13Z</time>
      </trkpt>
      <trkpt lat="43.7334" lon="4.76946">
        <ele>111.8</ele>
        <time>2022-10-16T11:21:28Z</time>
      </trkpt>
      <trkpt lat="43.73305" lon="4.76931">
        <ele>112.3</ele>
        <time>2022-10-16T11:21:48Z</time>
      </trkpt>
      <trkpt lat="43.73287" lon="4.76902">
        <ele>111.9</ele>
        <time>2022-10-16T11:22:20Z</time>
      </trkpt>
      <trkpt lat="43.73269" lon="4.76871">
        <ele>108.8</ele>
        <time>2022-10-16T11:23:22Z</time>
      </trkpt>
      <trkpt lat="43.7326" lon="4.7684">
        <ele>105.4</ele>
        <time>2022-10-16T11:23:27Z</time>
      </trkpt>
      <trkpt lat="43.73265" lon="4.76807">
        <ele>103.7</ele>
        <time>2022-10-16T11:23:48Z</time>
      </trkpt>
      <trkpt lat="43.73268" lon="4.7679">
        <ele>103</ele>
        <time>2022-10-16T11:23:54Z</time>
      </trkpt>
      <trkpt lat="43.73269" lon="4.7678">
        <ele>102.6</ele>
      </trkpt>
      <trkpt lat="43.73262" lon="4.76764">
        <ele>101.1</ele>
      </trkpt>
      <trkpt lat="43.73257" lon="4.7676">
        <ele>100.3</ele>
        <time>2022-10-16T11:24:23Z</time>
      </trkpt>
      <trkpt lat="43.73247" lon="4.76757">
        <ele>99.2</ele>
      </trkpt>
      <trkpt lat="43.73235" lon="4.76757">
        <ele>98.3</ele>
        <time>2022-10-16T11:24:33Z</time>
      </trkpt>
      <trkpt lat="43.73222" lon="4.76753">
        <ele>97.1</ele>
        <time>2022-10-16T11:24:40Z</time>
      </trkpt>
      <trkpt lat="43.73196" lon="4.76742">
        <ele>95</ele>
        <time>2022-10-16T11:25:08Z</time>
      </trkpt>
      <trkpt lat="43.73175" lon="4.76725">
        <ele>93.2</ele>
        <time>2022-10-16T11:25:42Z</time>
      </trkpt>
      <trkpt lat="43.7316" lon="4.76712">
        <ele>92.1</ele>
        <time>2022-10-16T11:25:51Z</time>
      </trkpt>
      <trkpt lat="43.73135" lon="4.76719">
        <ele>90.4</ele>
        <time>2022-10-16T11:26:09Z</time>
      </trkpt>
      <trkpt lat="43.73114" lon="4.76725">
        <ele>89.2</ele>
        <time>2022-10-16T11:26:27Z</time>
      </trkpt>
      <trkpt lat="43.73103" lon="4.76723">
        <ele>88.3</ele>
        <time>2022-10-16T11:26:38Z</time>
      </trkpt>
      <trkpt lat="43.73074" lon="4.76715">
        <ele>85.6</ele>
        <time>2022-10-16T11:27:11Z</time>
      </trkpt>
      <trkpt lat="43.73048" lon="4.7671">
        <ele>81.9</ele>
        <time>2022-10-16T11:27:34Z</time>
      </trkpt>
      <trkpt lat="43.73018" lon="4.76699">
        <ele>77.4</ele>
        <time>2022-10-16T11:28:02Z</time>
      </trkpt>
      <trkpt lat="43.73001" lon="4.76695">
        <ele>74.8</ele>
      </trkpt>
      <trkpt lat="43.72979" lon="4.76698">
        <ele>73.5</ele>
        <time>2022-10-16T11:28:43Z</time>
      </trkpt>
      <trkpt lat="43.72956" lon="4.76703">
        <ele>72.3</ele>
      </trkpt>
      <trkpt lat="43.72927" lon="4.76696">
        <ele>70</ele>
      </trkpt>
      <trkpt lat="43.72902" lon="4.7668">
        <ele>68.2</ele>
        <time>2022-10-16T11:29:48Z</time>
      </trkpt>
      <trkpt lat="43.72892" lon="4.76666">
        <ele>67.4</ele>
      </trkpt>
      <trkpt lat="43.72848" lon="4.76671">
        <ele>66.5</ele>
      </trkpt>
      <trkpt lat="43.72833" lon="4.76675">
        <ele>66.2</ele>
      </trkpt>
      <trkpt lat="43.72802" lon="4.76668">
        <ele>64.5</ele>
      </trkpt>
      <trkpt lat="43.72789" lon="4.76652">
        <ele>63.4</ele>
        <time>2022-10-16T11:35:30Z</time>
      </trkpt>
      <trkpt lat="43.72772" lon="4.76645">
        <ele>62.5</ele>
        <time>2022-10-16T11:35:54Z</time>
      </trkpt>
      <trkpt lat="43.72759" lon="4.7663">
        <ele>61.5</ele>
        <time>2022-10-16T11:36:10Z</time>
      </trkpt>
      <trkpt lat="43.72731" lon="4.76602">
        <ele>59.3</ele>
        <time>2022-10-16T11:36:41Z</time>
      </trkpt>
      <trkpt lat="43.72705" lon="4.76581">
        <ele>57.2</ele>
        <time>2022-10-16T11:36:54Z</time>
      </trkpt>
      <trkpt lat="43.72689" lon="4.76575">
        <ele>56.2</ele>
        <time>2022-10-16T11:37:18Z</time>
      </trkpt>
      <trkpt lat="43.72673" lon="4.76565">
        <ele>54.9</ele>
        <time>2022-10-16T11:37:32Z</time>
      </trkpt>
      <trkpt lat="43.72655" lon="4.76546">
        <ele>53.5</ele>
        <time>2022-10-16T11:37:46Z</time>
      </trkpt>
      <trkpt lat="43.72623" lon="4.76584">
        <ele>52.4</ele>
        <time>2022-10-16T11:39:19Z</time>
      </trkpt>
      <trkpt lat="43.72614" lon="4.76599">
        <ele>52.5</ele>
        <time>2022-10-16T11:39:34Z</time>
      </trkpt>
      <trkpt lat="43.72582" lon="4.76651">
        <ele>53.2</ele>
        <time>2022-10-16T11:40:15Z</time>
      </trkpt>
      <trkpt lat="43.72562" lon="4.76697">
        <ele>51.3</ele>
      </trkpt>
      <trkpt lat="43.72555" lon="4.76717">
        <ele>50.4</ele>
        <time>2022-10-16T11:41:07Z</time>
      </trkpt>
      <trkpt lat="43.72547" lon="4.76743">
        <ele>49.3</ele>
      </trkpt>
      <trkpt lat="43.72543" lon="4.7677">
        <ele>48</ele>
        <time>2022-10-16T11:41:39Z</time>
      </trkpt>
      <trkpt lat="43.72537" lon="4.76831">
        <ele>45.7</ele>
        <time>2022-10-16T11:42:02Z</time>
      </trkpt>
      <trkpt lat="43.72544" lon="4.7702">
        <ele>45.9</ele>
        <time>2022-10-16T11:45:20Z</time>
      </trkpt>
      <trkpt lat="43.72549" lon="4.7714">
        <ele>47.5</ele>
        <time>2022-10-16T11:45:38Z</time>
      </trkpt>
      <trkpt lat="43.7255" lon="4.77152">
        <ele>47.7</ele>
        <time>2022-10-16T11:45:42Z</time>
      </trkpt>
      <trkpt lat="43.72552" lon="4.772">
        <ele>47.8</ele>
        <time>2022-10-16T11:46:11Z</time>
      </trkpt>
      <trkpt lat="43.72557" lon="4.77326">
        <ele>47.5</ele>
        <time>2022-10-16T11:47:32Z</time>
      </trkpt>
      <trkpt lat="43.72558" lon="4.77349">
        <ele>47</ele>
        <time>2022-10-16T11:47:45Z</time>
      </trkpt>
      <trkpt lat="43.72559" lon="4.77375">
        <ele>46.1</ele>
      </trkpt>
      <trkpt lat="43.72558" lon="4.77399">
        <ele>45.2</ele>
      </trkpt>
      <trkpt lat="43.72556" lon="4.77424">
        <ele>44.4</ele>
        <time>2022-10-16T11:48:31Z</time>
      </trkpt>
      <trkpt lat="43.72548" lon="4.77484">
        <ele>44</ele>
        <time>2022-10-16T11:49:10Z</time>
      </trkpt>
      <trkpt lat="43.72532" lon="4.77541">
        <ele>41.7</ele>
      </trkpt>
      <trkpt lat="43.72526" lon="4.77558">
        <ele>40.8</ele>
        <time>2022-10-16T11:54:38Z</time>
      </trkpt>
      <trkpt lat="43.72519" lon="4.77574">
        <ele>40.1</ele>
      </trkpt>
      <trkpt lat="43.7251" lon="4.77592">
        <ele>39.5</ele>
        <time>2022-10-16T11:55:04Z</time>
      </trkpt>
      <trkpt lat="43.72502" lon="4.77606">
        <ele>39.1</ele>
      </trkpt>
      <trkpt lat="43.72494" lon="4.7762">
        <ele>38.8</ele>
        <time>2022-10-16T11:55:24Z</time>
      </trkpt>
      <trkpt lat="43.72455" lon="4.77678">
        <ele>37.1</ele>
      </trkpt>
      <trkpt lat="43.72428" lon="4.77716">
        <ele>36.7</ele>
        <time>2022-10-16T11:56:46Z</time>
      </trkpt>
      <trkpt lat="43.72421" lon="4.77728">
        <ele>36.7</ele>
      </trkpt>
      <trkpt lat="43.72417" lon="4.77732">
        <ele>36.6</ele>
      </trkpt>
      <trkpt lat="43.72416" lon="4.77737">
        <ele>36.6</ele>
      </trkpt>
      <trkpt lat="43.72414" lon="4.77752">
        <ele>36.8</ele>
      </trkpt>
      <trkpt lat="43.72401" lon="4.77792">
        <ele>36.2</ele>
        <time>2022-10-16T11:57:37Z</time>
      </trkpt>
      <trkpt lat="43.72397" lon="4.77807">
        <ele>36.1</ele>
      </trkpt>
      <trkpt lat="43.72393" lon="4.77829">
        <ele>36.1</ele>
      </trkpt>
      <trkpt lat="43.72392" lon="4.77866">
        <ele>35.8</ele>
        <time>2022-10-16T11:58:27Z</time>
      </trkpt>
      <trkpt lat="43.72397" lon="4.7791">
        <ele>35.6</ele>
        <time>2022-10-16T11:58:55Z</time>
      </trkpt>
      <trkpt lat="43.72399" lon="4.77922">
        <ele>35.5</ele>
      </trkpt>
      <trkpt lat="43.72409" lon="4.77954">
        <ele>35.4</ele>
        <time>2022-10-16T11:59:25Z</time>
      </trkpt>
      <trkpt lat="43.7241" lon="4.77979">
        <ele>35.1</ele>
        <time>2022-10-16T11:59:36Z</time>
      </trkpt>
      <trkpt lat="43.72412" lon="4.78029">
        <ele>35.2</ele>
        <time>2022-10-16T12:00:15Z</time>
      </trkpt>
      <trkpt lat="43.72418" lon="4.78059">
        <ele>35.8</ele>
        <time>2022-10-16T12:00:34Z</time>
      </trkpt>
      <trkpt lat="43.72426" lon="4.78083">
        <ele>36.9</ele>
      </trkpt>
      <trkpt lat="43.72432" lon="4.78098">
        <ele>37.4</ele>
      </trkpt>
      <trkpt lat="43.7244" lon="4.78106">
        <ele>38.2</ele>
      </trkpt>
      <trkpt lat="43.72446" lon="4.78123">
        <ele>38.8</ele>
        <time>2022-10-16T12:01:29Z</time>
      </trkpt>
      <trkpt lat="43.72444" lon="4.78204">
        <ele>37.8</ele>
      </trkpt>
      <trkpt lat="43.72453" lon="4.7823">
        <ele>38</ele>
      </trkpt>
      <trkpt lat="43.72496" lon="4.78281">
        <ele>39.7</ele>
      </trkpt>
      <trkpt lat="43.72503" lon="4.78319">
        <ele>38.7</ele>
        <time>2022-10-16T12:08:14Z</time>
      </trkpt>
      <trkpt lat="43.72495" lon="4.78343">
        <ele>37.9</ele>
        <time>2022-10-16T12:08:36Z</time>
      </trkpt>
      <trkpt lat="43.72461" lon="4.78389">
        <ele>37</ele>
        <time>2022-10-16T12:09:25Z</time>
      </trkpt>
      <trkpt lat="43.72441" lon="4.78427">
        <ele>36.4</ele>
      </trkpt>
      <trkpt lat="43.72456" lon="4.78453">
        <ele>38.3</ele>
        <time>2022-10-16T12:10:11Z</time>
      </trkpt>
      <trkpt lat="43.72466" lon="4.78473">
        <ele>40.1</ele>
        <time>2022-10-16T12:10:27Z</time>
      </trkpt>
      <trkpt lat="43.72479" lon="4.78513">
        <ele>42.6</ele>
        <time>2022-10-16T12:10:55Z</time>
      </trkpt>
      <trkpt lat="43.7248" lon="4.78539">
        <ele>41.4</ele>
        <time>2022-10-16T12:11:12Z</time>
      </trkpt>
      <trkpt lat="43.7247" lon="4.78587">
        <ele>38</ele>
      </trkpt>
      <trkpt lat="43.72458" lon="4.78622">
        <ele>35.6</ele>
        <time>2022-10-16T12:12:14Z</time>
      </trkpt>
      <trkpt lat="43.72449" lon="4.78638">
        <ele>34.6</ele>
        <time>2022-10-16T12:12:26Z</time>
      </trkpt>
      <trkpt lat="43.72433" lon="4.78651">
        <ele>33.6</ele>
        <time>2022-10-16T12:12:48Z</time>
      </trkpt>
      <trkpt lat="43.72422" lon="4.78651">
        <ele>33.2</ele>
      </trkpt>
      <trkpt lat="43.72417" lon="4.78668">
        <ele>33</ele>
        <time>2022-10-16T12:13:04Z</time>
      </trkpt>
      <trkpt lat="43.72411" lon="4.78728">
        <ele>32.1</ele>
      </trkpt>
      <trkpt lat="43.72397" lon="4.78827">
        <ele>29.2</ele>
        <time>2022-10-16T12:15:15Z</time>
      </trkpt>
      <trkpt lat="43.7239" lon="4.78871">
        <ele>28.7</ele>
        <time>2022-10-16T12:15:30Z</time>
      </trkpt>
      <trkpt lat="43.72386" lon="4.78911">
        <ele>28.5</ele>
      </trkpt>
      <trkpt lat="43.72385" lon="4.7893">
        <ele>28.5</ele>
        <time>2022-10-16T12:15:48Z</time>
      </trkpt>
      <trkpt lat="43.72384" lon="4.78963">
        <ele>28.5</ele>
        <time>2022-10-16T12:16:02Z</time>
      </trkpt>
      <trkpt lat="43.72382" lon="4.78998">
        <ele>28.3</ele>
        <time>2022-10-16T12:16:08Z</time>
      </trkpt>
      <trkpt lat="43.72377" lon="4.79015">
        <ele>28.5</ele>
      </trkpt>
      <trkpt lat="43.72369" lon="4.79034">
        <ele>28.5</ele>
        <time>2022-10-16T12:16:44Z</time>
      </trkpt>
      <trkpt lat="43.72359" lon="4.79054">
        <ele>28.3</ele>
      </trkpt>
      <trkpt lat="43.72354" lon="4.79078">
        <ele>28.4</ele>
        <time>2022-10-16T12:17:20Z</time>
      </trkpt>
      <trkpt lat="43.72352" lon="4.79121">
        <ele>28.2</ele>
        <time>2022-10-16T12:17:46Z</time>
      </trkpt>
      <trkpt lat="43.72371" lon="4.79119">
        <ele>29.5</ele>
        <time>2022-10-16T12:24:57Z</time>
      </trkpt>
      <trkpt lat="43.72387" lon="4.79118">
        <ele>30.6</ele>
      </trkpt>
      <trkpt lat="43.72407" lon="4.79113">
        <ele>32</ele>
        <time>2022-10-16T12:25:30Z</time>
      </trkpt>
      <trkpt lat="43.72439" lon="4.79105">
        <ele>33.5</ele>
        <time>2022-10-16T12:26:01Z</time>
      </trkpt>
      <trkpt lat="43.72444" lon="4.79104">
        <ele>33.7</ele>
      </trkpt>
      <trkpt lat="43.72454" lon="4.79104">
        <ele>34</ele>
      </trkpt>
      <trkpt lat="43.7249" lon="4.79109">
        <ele>35.1</ele>
        <time>2022-10-16T12:26:49Z</time>
      </trkpt>
      <trkpt lat="43.72518" lon="4.79111">
        <ele>36.5</ele>
      </trkpt>
      <trkpt lat="43.72547" lon="4.79111">
        <ele>38.5</ele>
        <time>2022-10-16T12:27:43Z</time>
      </trkpt>
      <trkpt lat="43.72562" lon="4.79117">
        <ele>39.5</ele>
        <time>2022-10-16T12:28:00Z</time>
      </trkpt>
      <trkpt lat="43.72588" lon="4.79132">
        <ele>41.3</ele>
        <time>2022-10-16T12:28:27Z</time>
      </trkpt>
      <trkpt lat="43.7258" lon="4.79178">
        <ele>40.4</ele>
      </trkpt>
      <trkpt lat="43.7257" lon="4.79221">
        <ele>38.5</ele>
        <time>2022-10-16T12:29:26Z</time>
      </trkpt>
      <trkpt lat="43.72553" lon="4.79253">
        <ele>36.4</ele>
        <time>2022-10-16T12:29:55Z</time>
      </trkpt>
      <trkpt lat="43.72548" lon="4.79289">
        <ele>35.5</ele>
      </trkpt>
      <trkpt lat="43.72547" lon="4.79328">
        <ele>34.9</ele>
      </trkpt>
      <trkpt lat="43.72548" lon="4.7935">
        <ele>35.1</ele>
        <time>2022-10-16T12:30:56Z</time>
      </trkpt>
      <trkpt lat="43.72549" lon="4.79418">
        <ele>36</ele>
        <time>2022-10-16T12:31:36Z</time>
      </trkpt>
      <trkpt lat="43.72539" lon="4.79436">
        <ele>35.9</ele>
      </trkpt>
      <trkpt lat="43.72524" lon="4.79456">
        <ele>35.3</ele>
        <time>2022-10-16T12:32:05Z</time>
      </trkpt>
      <trkpt lat="43.72508" lon="4.79461">
        <ele>34.1</ele>
        <time>2022-10-16T12:32:26Z</time>
      </trkpt>
      <trkpt lat="43.72502" lon="4.79474">
        <ele>33.9</ele>
        <time>2022-10-16T12:32:39Z</time>
      </trkpt>
      <trkpt lat="43.72483" lon="4.79555">
        <ele>34.7</ele>
        <time>2022-10-16T12:33:27Z</time>
      </trkpt>
      <trkpt lat="43.7249" lon="4.79699">
        <ele>39</ele>
        <time>2022-10-16T12:35:04Z</time>
      </trkpt>
      <trkpt lat="43.72488" lon="4.7974">
        <ele>40.6</ele>
      </trkpt>
      <trkpt lat="43.72483" lon="4.79774">
        <ele>40.9</ele>
        <time>2022-10-16T12:35:08Z</time>
      </trkpt>
      <trkpt lat="43.72477" lon="4.79847">
        <ele>41</ele>
        <time>2022-10-16T12:38:41Z</time>
      </trkpt>
      <trkpt lat="43.72482" lon="4.79895">
        <ele>41.2</ele>
        <time>2022-10-16T12:39:29Z</time>
      </trkpt>
      <trkpt lat="43.72484" lon="4.79923">
        <ele>41.3</ele>
        <time>2022-10-16T12:39:44Z</time>
      </trkpt>
      <trkpt lat="43.72411" lon="4.79999">
        <ele>38.8</ele>
        <time>2022-10-16T12:41:18Z</time>
      </trkpt>
      <trkpt lat="43.72366" lon="4.8004">
        <ele>37.6</ele>
      </trkpt>
      <trkpt lat="43.7232" lon="4.80075">
        <ele>36.9</ele>
      </trkpt>
      <trkpt lat="43.72285" lon="4.80076">
        <ele>36.5</ele>
        <time>2022-10-16T12:44:16Z</time>
      </trkpt>
      <trkpt lat="43.72268" lon="4.80074">
        <ele>36.4</ele>
        <time>2022-10-16T12:44:32Z</time>
      </trkpt>
      <trkpt lat="43.72258" lon="4.80073">
        <ele>36.3</ele>
      </trkpt>
      <trkpt lat="43.72252" lon="4.8008">
        <ele>36.1</ele>
        <time>2022-10-16T12:44:49Z</time>
      </trkpt>
      <trkpt lat="43.72235" lon="4.80099">
        <ele>35.6</ele>
        <time>2022-10-16T12:48:52Z</time>
      </trkpt>
      <trkpt lat="43.72233" lon="4.80106">
        <ele>35.5</ele>
      </trkpt>
      <trkpt lat="43.72231" lon="4.80121">
        <ele>35.3</ele>
        <time>2022-10-16T12:49:09Z</time>
      </trkpt>
      <trkpt lat="43.72222" lon="4.80161">
        <ele>34.7</ele>
        <time>2022-10-16T12:49:37Z</time>
      </trkpt>
      <trkpt lat="43.72222" lon="4.80179">
        <ele>34.6</ele>
        <time>2022-10-16T12:49:43Z</time>
      </trkpt>
      <trkpt lat="43.72222" lon="4.80196">
        <ele>34.6</ele>
      </trkpt>
      <trkpt lat="43.72221" lon="4.80212">
        <ele>34.4</ele>
        <time>2022-10-16T12:50:10Z</time>
      </trkpt>
      <trkpt lat="43.7222" lon="4.80226">
        <ele>34.3</ele>
        <time>2022-10-16T12:50:30Z</time>
      </trkpt>
      <trkpt lat="43.72195" lon="4.80231">
        <ele>33.6</ele>
        <time>2022-10-16T12:50:44Z</time>
      </trkpt>
      <trkpt lat="43.72184" lon="4.80228">
        <ele>33.3</ele>
        <time>2022-10-16T12:50:59Z</time>
      </trkpt>
      <trkpt lat="43.72164" lon="4.80237">
        <ele>32.8</ele>
      </trkpt>
      <trkpt lat="43.72039" lon="4.80248">
        <ele>30</ele>
      </trkpt>
      <trkpt lat="43.72021" lon="4.80401">
        <ele>29.3</ele>
        <time>2022-10-16T12:59:07Z</time>
      </trkpt>
      <trkpt lat="43.72014" lon="4.80453">
        <ele>29.9</ele>
        <time>2022-10-16T12:59:44Z</time>
      </trkpt>
      <trkpt lat="43.72008" lon="4.80489">
        <ele>30.2</ele>
        <time>2022-10-16T13:00:39Z</time>
      </trkpt>
      <trkpt lat="43.71956" lon="4.80484">
        <ele>29.3</ele>
        <time>2022-10-16T13:00:52Z</time>
      </trkpt>
      <trkpt lat="43.71952" lon="4.8051">
        <ele>29.7</ele>
        <time>2022-10-16T13:01:11Z</time>
      </trkpt>
      <trkpt lat="43.71951" lon="4.80535">
        <ele>30.4</ele>
        <time>2022-10-16T13:01:28Z</time>
      </trkpt>
      <trkpt lat="43.71949" lon="4.8055">
        <ele>30.8</ele>
        <time>2022-10-16T13:01:36Z</time>
      </trkpt>
      <trkpt lat="43.71903" lon="4.80544">
        <ele>29.9</ele>
        <time>2022-10-16T13:02:19Z</time>
      </trkpt>
      <trkpt lat="43.71884" lon="4.80538">
        <ele>29.6</ele>
      </trkpt>
      <trkpt lat="43.71848" lon="4.80535">
        <ele>29.1</ele>
        <time>2022-10-16T13:03:07Z</time>
      </trkpt>
      <trkpt lat="43.71839" lon="4.80535">
        <ele>29.1</ele>
      </trkpt>
      <trkpt lat="43.71836" lon="4.80552">
        <ele>29</ele>
        <time>2022-10-16T13:03:21Z</time>
      </trkpt>
      <trkpt lat="43.71832" lon="4.80577">
        <ele>29</ele>
        <time>2022-10-16T13:03:38Z</time>
      </trkpt>
      <trkpt lat="43.71828" lon="4.80606">
        <ele>28.9</ele>
        <time>2022-10-16T13:03:55Z</time>
      </trkpt>
      <trkpt lat="43.71827" lon="4.80629">
        <ele>28.9</ele>
        <time>2022-10-16T13:04:09Z</time>
      </trkpt>
      <trkpt lat="43.71823" lon="4.80679">
        <ele>28.9</ele>
        <time>2022-10-16T13:04:39Z</time>
      </trkpt>
      <trkpt lat="43.71822" lon="4.80699">
        <ele>28.8</ele>
        <time>2022-10-16T13:04:55Z</time>
      </trkpt>
      <trkpt lat="43.71818" lon="4.80702">
        <ele>28.7</ele>
        <time>2022-10-16T13:05:15Z</time>
      </trkpt>
      <trkpt lat="43.71803" lon="4.80702">
        <ele>28.5</ele>
        <time>2022-10-16T13:05:31Z</time>
      </trkpt>
      <trkpt lat="43.71776" lon="4.80704">
        <ele>28</ele>
      </trkpt>
      <trkpt lat="43.71756" lon="4.80728">
        <ele>27.4</ele>
        <time>2022-10-16T13:05:51Z</time>
      </trkpt>
    </trkseg>
  </trk>
  <trk>
    <name><![CDATA[Tracé 001]]></name>
    <extensions>
      <line xmlns="http://www.topografix.com/GPX/gpx_style/0/2">
        <color>0000FF</color>
        <width>4</width>
      </line>
    </extensions>
    <trkseg>
      <trkpt lat="43.71755" lon="4.80726">
        <ele>27.4</ele>
        <time>2022-10-16T06:39:29Z</time>
      </trkpt>
      <trkpt lat="43.71777" lon="4.80704">
        <ele>28</ele>
      </trkpt>
      <trkpt lat="43.71802" lon="4.80701">
        <ele>28.5</ele>
        <time>2022-10-16T06:39:43Z</time>
      </trkpt>
      <trkpt lat="43.71837" lon="4.80704">
        <ele>29.2</ele>
        <time>2022-10-16T06:40:18Z</time>
      </trkpt>
      <trkpt lat="43.71839" lon="4.80706">
        <ele>29.2</ele>
        <time>2022-10-16T06:40:31Z</time>
      </trkpt>
      <trkpt lat="43.71861" lon="4.80708">
        <ele>30.2</ele>
        <time>2022-10-16T06:41:04Z</time>
      </trkpt>
      <trkpt lat="43.7188" lon="4.80717">
        <ele>30.9</ele>
        <time>2022-10-16T06:41:26Z</time>
      </trkpt>
      <trkpt lat="43.71902" lon="4.80723">
        <ele>31.7</ele>
        <time>2022-10-16T06:42:03Z</time>
      </trkpt>
      <trkpt lat="43.71922" lon="4.80726">
        <ele>32.4</ele>
        <time>2022-10-16T06:42:30Z</time>
      </trkpt>
      <trkpt lat="43.71975" lon="4.80741">
        <ele>33.5</ele>
        <time>2022-10-16T06:43:51Z</time>
      </trkpt>
      <trkpt lat="43.71991" lon="4.80743">
        <ele>33.9</ele>
        <time>2022-10-16T06:44:06Z</time>
      </trkpt>
      <trkpt lat="43.72006" lon="4.80749">
        <ele>34.2</ele>
        <time>2022-10-16T06:44:21Z</time>
      </trkpt>
      <trkpt lat="43.72044" lon="4.80754">
        <ele>35.6</ele>
        <time>2022-10-16T06:45:12Z</time>
      </trkpt>
      <trkpt lat="43.721" lon="4.80724">
        <ele>36.9</ele>
        <time>2022-10-16T06:46:11Z</time>
      </trkpt>
      <trkpt lat="43.72104" lon="4.80718">
        <ele>36.9</ele>
      </trkpt>
      <trkpt lat="43.72115" lon="4.80714">
        <ele>36.9</ele>
        <time>2022-10-16T06:46:30Z</time>
      </trkpt>
      <trkpt lat="43.72122" lon="4.80715">
        <ele>37</ele>
        <time>2022-10-16T06:46:40Z</time>
      </trkpt>
      <trkpt lat="43.72121" lon="4.80695">
        <ele>36.8</ele>
        <time>2022-10-16T06:46:56Z</time>
      </trkpt>
      <trkpt lat="43.7213" lon="4.80662">
        <ele>36.6</ele>
        <time>2022-10-16T06:47:24Z</time>
      </trkpt>
      <trkpt lat="43.72135" lon="4.80634">
        <ele>36.6</ele>
      </trkpt>
      <trkpt lat="43.72141" lon="4.80624">
        <ele>36.7</ele>
        <time>2022-10-16T06:47:58Z</time>
      </trkpt>
      <trkpt lat="43.72147" lon="4.80589">
        <ele>36.8</ele>
        <time>2022-10-16T06:48:42Z</time>
      </trkpt>
      <trkpt lat="43.72144" lon="4.80588">
        <ele>36.7</ele>
        <time>2022-10-16T06:50:28Z</time>
      </trkpt>
      <trkpt lat="43.72128" lon="4.80587">
        <ele>36.5</ele>
        <time>2022-10-16T06:50:45Z</time>
      </trkpt>
      <trkpt lat="43.72111" lon="4.80582">
        <ele>36.3</ele>
        <time>2022-10-16T06:51:03Z</time>
      </trkpt>
      <trkpt lat="43.72111" lon="4.80567">
        <ele>36</ele>
        <time>2022-10-16T06:51:17Z</time>
      </trkpt>
      <trkpt lat="43.72094" lon="4.80557">
        <ele>35.5</ele>
        <time>2022-10-16T06:51:36Z</time>
      </trkpt>
      <trkpt lat="43.72098" lon="4.80535">
        <ele>35.1</ele>
      </trkpt>
      <trkpt lat="43.72114" lon="4.80527">
        <ele>35.3</ele>
      </trkpt>
      <trkpt lat="43.72141" lon="4.80515">
        <ele>35.6</ele>
        <time>2022-10-16T06:56:03Z</time>
      </trkpt>
      <trkpt lat="43.72139" lon="4.80506">
        <ele>35.4</ele>
        <time>2022-10-16T06:56:15Z</time>
      </trkpt>
      <trkpt lat="43.72154" lon="4.80506">
        <ele>35.8</ele>
        <time>2022-10-16T06:56:25Z</time>
      </trkpt>
      <trkpt lat="43.72158" lon="4.80507">
        <ele>35.9</ele>
        <time>2022-10-16T06:56:29Z</time>
      </trkpt>
      <trkpt lat="43.72161" lon="4.80509">
        <ele>36</ele>
        <time>2022-10-16T06:56:33Z</time>
      </trkpt>
      <trkpt lat="43.72175" lon="4.80512">
        <ele>36.2</ele>
        <time>2022-10-16T06:56:46Z</time>
      </trkpt>
      <trkpt lat="43.7218" lon="4.80515">
        <ele>36.3</ele>
        <time>2022-10-16T06:57:03Z</time>
      </trkpt>
      <trkpt lat="43.72183" lon="4.80509">
        <ele>36.3</ele>
        <time>2022-10-16T06:57:10Z</time>
      </trkpt>
      <trkpt lat="43.72196" lon="4.80469">
        <ele>36.1</ele>
        <time>2022-10-16T06:57:40Z</time>
      </trkpt>
      <trkpt lat="43.72194" lon="4.80464">
        <ele>36</ele>
        <time>2022-10-16T06:57:47Z</time>
      </trkpt>
      <trkpt lat="43.722" lon="4.80443">
        <ele>36</ele>
        <time>2022-10-16T06:58:05Z</time>
      </trkpt>
      <trkpt lat="43.72204" lon="4.80435">
        <ele>36</ele>
      </trkpt>
      <trkpt lat="43.72213" lon="4.80438">
        <ele>36.2</ele>
        <time>2022-10-16T06:59:18Z</time>
      </trkpt>
      <trkpt lat="43.7224" lon="4.80446">
        <ele>36.8</ele>
        <time>2022-10-16T06:59:41Z</time>
      </trkpt>
      <trkpt lat="43.72262" lon="4.80467">
        <ele>36.9</ele>
        <time>2022-10-16T07:00:16Z</time>
      </trkpt>
      <trkpt lat="43.72254" lon="4.80448">
        <ele>37</ele>
        <time>2022-10-16T07:00:42Z</time>
      </trkpt>
      <trkpt lat="43.72254" lon="4.80427">
        <ele>37</ele>
        <time>2022-10-16T07:01:29Z</time>
      </trkpt>
      <trkpt lat="43.72263" lon="4.80392">
        <ele>36.7</ele>
        <time>2022-10-16T07:01:46Z</time>
      </trkpt>
      <trkpt lat="43.7227" lon="4.80387">
        <ele>36.7</ele>
        <time>2022-10-16T07:02:05Z</time>
      </trkpt>
      <trkpt lat="43.72276" lon="4.80387">
        <ele>36.8</ele>
      </trkpt>
      <trkpt lat="43.7228" lon="4.80389">
        <ele>36.8</ele>
      </trkpt>
      <trkpt lat="43.72282" lon="4.80392">
        <ele>36.8</ele>
        <time>2022-10-16T07:02:33Z</time>
      </trkpt>
      <trkpt lat="43.72286" lon="4.80395">
        <ele>36.9</ele>
      </trkpt>
      <trkpt lat="43.72296" lon="4.80398">
        <ele>36.9</ele>
      </trkpt>
      <trkpt lat="43.72307" lon="4.80406">
        <ele>37</ele>
        <time>2022-10-16T07:04:23Z</time>
      </trkpt>
      <trkpt lat="43.72312" lon="4.80423">
        <ele>36.9</ele>
        <time>2022-10-16T07:04:38Z</time>
      </trkpt>
      <trkpt lat="43.72323" lon="4.80436">
        <ele>36.8</ele>
        <time>2022-10-16T07:04:58Z</time>
      </trkpt>
      <trkpt lat="43.72326" lon="4.80446">
        <ele>36.7</ele>
        <time>2022-10-16T07:05:07Z</time>
      </trkpt>
      <trkpt lat="43.72327" lon="4.8046">
        <ele>36.5</ele>
        <time>2022-10-16T07:05:20Z</time>
      </trkpt>
      <trkpt lat="43.72334" lon="4.80461">
        <ele>36.5</ele>
        <time>2022-10-16T07:05:33Z</time>
      </trkpt>
      <trkpt lat="43.72347" lon="4.80447">
        <ele>36.9</ele>
        <time>2022-10-16T07:05:49Z</time>
      </trkpt>
      <trkpt lat="43.72355" lon="4.80444">
        <ele>37</ele>
        <time>2022-10-16T07:06:04Z</time>
      </trkpt>
      <trkpt lat="43.72377" lon="4.8043">
        <ele>37.4</ele>
        <time>2022-10-16T07:06:22Z</time>
      </trkpt>
      <trkpt lat="43.72386" lon="4.80385">
        <ele>37.6</ele>
        <time>2022-10-16T07:10:48Z</time>
      </trkpt>
      <trkpt lat="43.72387" lon="4.80349">
        <ele>37.6</ele>
        <time>2022-10-16T07:11:15Z</time>
      </trkpt>
      <trkpt lat="43.72418" lon="4.80366">
        <ele>38</ele>
        <time>2022-10-16T07:11:47Z</time>
      </trkpt>
      <trkpt lat="43.72431" lon="4.80372">
        <ele>38.4</ele>
      </trkpt>
      <trkpt lat="43.72435" lon="4.80373">
        <ele>38.5</ele>
        <time>2022-10-16T07:11:58Z</time>
      </trkpt>
      <trkpt lat="43.72457" lon="4.80383">
        <ele>39.2</ele>
      </trkpt>
      <trkpt lat="43.72471" lon="4.80385">
        <ele>39.7</ele>
        <time>2022-10-16T07:12:37Z</time>
      </trkpt>
      <trkpt lat="43.72481" lon="4.8028">
        <ele>39.9</ele>
      </trkpt>
      <trkpt lat="43.7251" lon="4.80279">
        <ele>40.9</ele>
        <time>2022-10-16T07:14:41Z</time>
      </trkpt>
      <trkpt lat="43.72539" lon="4.80277">
        <ele>41.6</ele>
        <time>2022-10-16T07:15:11Z</time>
      </trkpt>
      <trkpt lat="43.72573" lon="4.80268">
        <ele>42.5</ele>
      </trkpt>
      <trkpt lat="43.72608" lon="4.80258">
        <ele>44.6</ele>
        <time>2022-10-16T07:16:11Z</time>
      </trkpt>
      <trkpt lat="43.72651" lon="4.80272">
        <ele>47.2</ele>
        <time>2022-10-16T07:16:50Z</time>
      </trkpt>
      <trkpt lat="43.72673" lon="4.80276">
        <ele>48.7</ele>
      </trkpt>
      <trkpt lat="43.72697" lon="4.80271">
        <ele>51.3</ele>
      </trkpt>
      <trkpt lat="43.72697" lon="4.80265">
        <ele>51.8</ele>
      </trkpt>
      <trkpt lat="43.72696" lon="4.80258">
        <ele>52</ele>
        <time>2022-10-16T07:18:01Z</time>
      </trkpt>
      <trkpt lat="43.72692" lon="4.8024">
        <ele>52.9</ele>
        <time>2022-10-16T07:18:19Z</time>
      </trkpt>
      <trkpt lat="43.7269" lon="4.80226">
        <ele>53.8</ele>
      </trkpt>
      <trkpt lat="43.72687" lon="4.80164">
        <ele>58.5</ele>
      </trkpt>
      <trkpt lat="43.72682" lon="4.80128">
        <ele>58.9</ele>
      </trkpt>
      <trkpt lat="43.72677" lon="4.80102">
        <ele>59</ele>
        <time>2022-10-16T07:25:34Z</time>
      </trkpt>
      <trkpt lat="43.72675" lon="4.80081">
        <ele>59.4</ele>
      </trkpt>
      <trkpt lat="43.72675" lon="4.80062">
        <ele>59.6</ele>
        <time>2022-10-16T07:25:55Z</time>
      </trkpt>
      <trkpt lat="43.72679" lon="4.80037">
        <ele>60.7</ele>
        <time>2022-10-16T07:26:19Z</time>
      </trkpt>
      <trkpt lat="43.72681" lon="4.80015">
        <ele>61.4</ele>
        <time>2022-10-16T07:26:40Z</time>
      </trkpt>
      <trkpt lat="43.72681" lon="4.79996">
        <ele>61.3</ele>
        <time>2022-10-16T07:26:58Z</time>
      </trkpt>
      <trkpt lat="43.72682" lon="4.79958">
        <ele>59.5</ele>
        <time>2022-10-16T07:27:21Z</time>
      </trkpt>
      <trkpt lat="43.72684" lon="4.79921">
        <ele>58</ele>
      </trkpt>
      <trkpt lat="43.72689" lon="4.79913">
        <ele>58.4</ele>
      </trkpt>
      <trkpt lat="43.72692" lon="4.79907">
        <ele>58.9</ele>
      </trkpt>
      <trkpt lat="43.72697" lon="4.79889">
        <ele>59.5</ele>
      </trkpt>
      <trkpt lat="43.72706" lon="4.79883">
        <ele>60.7</ele>
        <time>2022-10-16T07:28:33Z</time>
      </trkpt>
      <trkpt lat="43.72712" lon="4.79876">
        <ele>61.5</ele>
      </trkpt>
      <trkpt lat="43.72713" lon="4.79864">
        <ele>61.5</ele>
      </trkpt>
      <trkpt lat="43.72716" lon="4.79847">
        <ele>61.7</ele>
        <time>2022-10-16T07:28:57Z</time>
      </trkpt>
      <trkpt lat="43.72719" lon="4.79834">
        <ele>61.9</ele>
      </trkpt>
      <trkpt lat="43.72726" lon="4.79828">
        <ele>63</ele>
        <time>2022-10-16T07:29:15Z</time>
      </trkpt>
      <trkpt lat="43.72727" lon="4.79809">
        <ele>63.7</ele>
      </trkpt>
      <trkpt lat="43.72737" lon="4.79779">
        <ele>66.2</ele>
      </trkpt>
      <trkpt lat="43.72752" lon="4.79736">
        <ele>69.8</ele>
        <time>2022-10-16T07:30:01Z</time>
      </trkpt>
      <trkpt lat="43.72769" lon="4.79711">
        <ele>71.5</ele>
        <time>2022-10-16T07:30:54Z</time>
      </trkpt>
      <trkpt lat="43.72777" lon="4.79679">
        <ele>72.3</ele>
        <time>2022-10-16T07:31:47Z</time>
      </trkpt>
      <trkpt lat="43.72784" lon="4.79656">
        <ele>73</ele>
      </trkpt>
      <trkpt lat="43.72791" lon="4.79628">
        <ele>73.6</ele>
      </trkpt>
      <trkpt lat="43.72796" lon="4.79617">
        <ele>74.4</ele>
      </trkpt>
      <trkpt lat="43.728" lon="4.79611">
        <ele>75.3</ele>
      </trkpt>
      <trkpt lat="43.72807" lon="4.79615">
        <ele>76.7</ele>
      </trkpt>
      <trkpt lat="43.72811" lon="4.79595">
        <ele>77.6</ele>
        <time>2022-10-16T07:32:43Z</time>
      </trkpt>
      <trkpt lat="43.72816" lon="4.79579">
        <ele>78.8</ele>
        <time>2022-10-16T07:32:57Z</time>
      </trkpt>
      <trkpt lat="43.72816" lon="4.79555">
        <ele>78.8</ele>
        <time>2022-10-16T07:33:14Z</time>
      </trkpt>
      <trkpt lat="43.72813" lon="4.79539">
        <ele>78</ele>
      </trkpt>
      <trkpt lat="43.72813" lon="4.79523">
        <ele>78.1</ele>
        <time>2022-10-16T07:33:46Z</time>
      </trkpt>
      <trkpt lat="43.72811" lon="4.79514">
        <ele>77.6</ele>
        <time>2022-10-16T07:34:09Z</time>
      </trkpt>
      <trkpt lat="43.72795" lon="4.79492">
        <ele>73.7</ele>
        <time>2022-10-16T07:34:31Z</time>
      </trkpt>
      <trkpt lat="43.72764" lon="4.79483">
        <ele>66.2</ele>
        <time>2022-10-16T07:35:05Z</time>
      </trkpt>
      <trkpt lat="43.72756" lon="4.79479">
        <ele>64.4</ele>
        <time>2022-10-16T07:35:22Z</time>
      </trkpt>
      <trkpt lat="43.72747" lon="4.79424">
        <ele>62.3</ele>
        <time>2022-10-16T07:36:28Z</time>
      </trkpt>
      <trkpt lat="43.72783" lon="4.79455">
        <ele>70.6</ele>
        <time>2022-10-16T07:38:43Z</time>
      </trkpt>
      <trkpt lat="43.72803" lon="4.7946">
        <ele>75.4</ele>
        <time>2022-10-16T07:39:02Z</time>
      </trkpt>
      <trkpt lat="43.72811" lon="4.79472">
        <ele>77.4</ele>
        <time>2022-10-16T07:39:14Z</time>
      </trkpt>
      <trkpt lat="43.72812" lon="4.79526">
        <ele>77.8</ele>
        <time>2022-10-16T07:39:51Z</time>
      </trkpt>
      <trkpt lat="43.72814" lon="4.79543">
        <ele>78.3</ele>
      </trkpt>
      <trkpt lat="43.72816" lon="4.79552">
        <ele>78.7</ele>
        <time>2022-10-16T07:40:02Z</time>
      </trkpt>
      <trkpt lat="43.72823" lon="4.7955">
        <ele>80.6</ele>
        <time>2022-10-16T07:40:07Z</time>
      </trkpt>
      <trkpt lat="43.72837" lon="4.79547">
        <ele>83.4</ele>
        <time>2022-10-16T07:40:26Z</time>
      </trkpt>
      <trkpt lat="43.72843" lon="4.79543">
        <ele>84.2</ele>
        <time>2022-10-16T07:40:41Z</time>
      </trkpt>
      <trkpt lat="43.72854" lon="4.79539">
        <ele>85.5</ele>
      </trkpt>
      <trkpt lat="43.72864" lon="4.79531">
        <ele>86.9</ele>
      </trkpt>
      <trkpt lat="43.7288" lon="4.79526">
        <ele>88.9</ele>
        <time>2022-10-16T07:41:46Z</time>
      </trkpt>
      <trkpt lat="43.72888" lon="4.79536">
        <ele>89.9</ele>
        <time>2022-10-16T07:42:06Z</time>
      </trkpt>
      <trkpt lat="43.72893" lon="4.7954">
        <ele>90.6</ele>
        <time>2022-10-16T07:42:25Z</time>
      </trkpt>
      <trkpt lat="43.72895" lon="4.79539">
        <ele>90.8</ele>
      </trkpt>
      <trkpt lat="43.72899" lon="4.7954">
        <ele>91.3</ele>
      </trkpt>
      <trkpt lat="43.72905" lon="4.79555">
        <ele>91.9</ele>
      </trkpt>
      <trkpt lat="43.72915" lon="4.79575">
        <ele>92.9</ele>
        <time>2022-10-16T07:43:03Z</time>
      </trkpt>
      <trkpt lat="43.72916" lon="4.7958">
        <ele>92.9</ele>
      </trkpt>
      <trkpt lat="43.72918" lon="4.79584">
        <ele>93.3</ele>
      </trkpt>
      <trkpt lat="43.72924" lon="4.79592">
        <ele>94.4</ele>
      </trkpt>
      <trkpt lat="43.72925" lon="4.79598">
        <ele>94.9</ele>
      </trkpt>
      <trkpt lat="43.72927" lon="4.79598">
        <ele>95.2</ele>
        <time>2022-10-16T07:43:44Z</time>
      </trkpt>
      <trkpt lat="43.72934" lon="4.79606">
        <ele>96.8</ele>
      </trkpt>
      <trkpt lat="43.72943" lon="4.7961">
        <ele>98.6</ele>
        <time>2022-10-16T07:44:07Z</time>
      </trkpt>
      <trkpt lat="43.7297" lon="4.79623">
        <ele>104.4</ele>
        <time>2022-10-16T07:44:50Z</time>
      </trkpt>
      <trkpt lat="43.7298" lon="4.79632">
        <ele>106.7</ele>
        <time>2022-10-16T07:45:12Z</time>
      </trkpt>
      <trkpt lat="43.73003" lon="4.79639">
        <ele>111.4</ele>
        <time>2022-10-16T07:45:53Z</time>
      </trkpt>
      <trkpt lat="43.73008" lon="4.79638">
        <ele>111.9</ele>
      </trkpt>
      <trkpt lat="43.73015" lon="4.79642">
        <ele>112.8</ele>
        <time>2022-10-16T07:46:37Z</time>
      </trkpt>
      <trkpt lat="43.73024" lon="4.79631">
        <ele>113.7</ele>
      </trkpt>
      <trkpt lat="43.73039" lon="4.79614">
        <ele>115.6</ele>
      </trkpt>
      <trkpt lat="43.73045" lon="4.7961">
        <ele>116.5</ele>
      </trkpt>
      <trkpt lat="43.73054" lon="4.79584">
        <ele>118.1</ele>
      </trkpt>
      <trkpt lat="43.73073" lon="4.79561">
        <ele>121.2</ele>
        <time>2022-10-16T07:51:17Z</time>
      </trkpt>
      <trkpt lat="43.73074" lon="4.79551">
        <ele>121.5</ele>
        <time>2022-10-16T07:51:40Z</time>
      </trkpt>
      <trkpt lat="43.73081" lon="4.79533">
        <ele>122.6</ele>
      </trkpt>
      <trkpt lat="43.73091" lon="4.79518">
        <ele>123.8</ele>
      </trkpt>
      <trkpt lat="43.73096" lon="4.79503">
        <ele>124.4</ele>
        <time>2022-10-16T07:59:36Z</time>
      </trkpt>
      <trkpt lat="43.73103" lon="4.79467">
        <ele>122.2</ele>
      </trkpt>
      <trkpt lat="43.73109" lon="4.79446">
        <ele>121</ele>
        <time>2022-10-16T08:00:11Z</time>
      </trkpt>
      <trkpt lat="43.73113" lon="4.79439">
        <ele>120.8</ele>
      </trkpt>
      <trkpt lat="43.73116" lon="4.79435">
        <ele>120.8</ele>
      </trkpt>
      <trkpt lat="43.73118" lon="4.79434">
        <ele>120.9</ele>
        <time>2022-10-16T08:00:27Z</time>
      </trkpt>
      <trkpt lat="43.73123" lon="4.79431">
        <ele>121</ele>
      </trkpt>
      <trkpt lat="43.73127" lon="4.79423">
        <ele>120.7</ele>
      </trkpt>
      <trkpt lat="43.7313" lon="4.79413">
        <ele>119.9</ele>
      </trkpt>
      <trkpt lat="43.73137" lon="4.79387">
        <ele>116.3</ele>
        <time>2022-10-16T08:00:57Z</time>
      </trkpt>
      <trkpt lat="43.73141" lon="4.79346">
        <ele>110.4</ele>
      </trkpt>
      <trkpt lat="43.73145" lon="4.79327">
        <ele>108.9</ele>
      </trkpt>
      <trkpt lat="43.73147" lon="4.79311">
        <ele>109.2</ele>
      </trkpt>
      <trkpt lat="43.7315" lon="4.79293">
        <ele>109.8</ele>
        <time>2022-10-16T08:02:10Z</time>
      </trkpt>
      <trkpt lat="43.73156" lon="4.79278">
        <ele>110.9</ele>
      </trkpt>
      <trkpt lat="43.73162" lon="4.79273">
        <ele>111.9</ele>
        <time>2022-10-16T08:02:38Z</time>
      </trkpt>
      <trkpt lat="43.7318" lon="4.79256">
        <ele>115.6</ele>
      </trkpt>
      <trkpt lat="43.73189" lon="4.7925">
        <ele>117.6</ele>
      </trkpt>
      <trkpt lat="43.73199" lon="4.79239">
        <ele>120.5</ele>
      </trkpt>
      <trkpt lat="43.73202" lon="4.79229">
        <ele>122.1</ele>
      </trkpt>
      <trkpt lat="43.73218" lon="4.79165">
        <ele>130.9</ele>
      </trkpt>
      <trkpt lat="43.73226" lon="4.79134">
        <ele>130.7</ele>
      </trkpt>
      <trkpt lat="43.73234" lon="4.79121">
        <ele>131.5</ele>
        <time>2022-10-16T08:05:59Z</time>
      </trkpt>
      <trkpt lat="43.73247" lon="4.79104">
        <ele>132.8</ele>
      </trkpt>
      <trkpt lat="43.73259" lon="4.79084">
        <ele>134.1</ele>
      </trkpt>
      <trkpt lat="43.73267" lon="4.7908">
        <ele>135.2</ele>
      </trkpt>
      <trkpt lat="43.73272" lon="4.79073">
        <ele>135.4</ele>
        <time>2022-10-16T08:06:59Z</time>
      </trkpt>
      <trkpt lat="43.73275" lon="4.79066">
        <ele>135.2</ele>
      </trkpt>
      <trkpt lat="43.73277" lon="4.79056">
        <ele>134.3</ele>
        <time>2022-10-16T08:07:17Z</time>
      </trkpt>
      <trkpt lat="43.73279" lon="4.79046">
        <ele>133.6</ele>
        <time>2022-10-16T08:07:27Z</time>
      </trkpt>
      <trkpt lat="43.73287" lon="4.79024">
        <ele>132.7</ele>
      </trkpt>
      <trkpt lat="43.73296" lon="4.79002">
        <ele>132.2</ele>
        <time>2022-10-16T08:11:12Z</time>
      </trkpt>
      <trkpt lat="43.73303" lon="4.7899">
        <ele>133.1</ele>
        <time>2022-10-16T08:11:29Z</time>
      </trkpt>
      <trkpt lat="43.73321" lon="4.78977">
        <ele>135.9</ele>
        <time>2022-10-16T08:11:48Z</time>
      </trkpt>
      <trkpt lat="43.73335" lon="4.78972">
        <ele>138.1</ele>
        <time>2022-10-16T08:12:06Z</time>
      </trkpt>
      <trkpt lat="43.7335" lon="4.78972">
        <ele>139.3</ele>
      </trkpt>
      <trkpt lat="43.73356" lon="4.78967">
        <ele>139.3</ele>
      </trkpt>
      <trkpt lat="43.73365" lon="4.78953">
        <ele>138.9</ele>
      </trkpt>
      <trkpt lat="43.73365" lon="4.78942">
        <ele>138</ele>
      </trkpt>
      <trkpt lat="43.73365" lon="4.78933">
        <ele>137.2</ele>
        <time>2022-10-16T08:12:55Z</time>
      </trkpt>
      <trkpt lat="43.73366" lon="4.78921">
        <ele>136.2</ele>
        <time>2022-10-16T08:13:14Z</time>
      </trkpt>
      <trkpt lat="43.73369" lon="4.7891">
        <ele>136.7</ele>
        <time>2022-10-16T08:13:17Z</time>
      </trkpt>
      <trkpt lat="43.73375" lon="4.78915">
        <ele>137</ele>
        <time>2022-10-16T08:13:22Z</time>
      </trkpt>
      <trkpt lat="43.73401" lon="4.7894">
        <ele>141.5</ele>
        <time>2022-10-16T08:13:58Z</time>
      </trkpt>
      <trkpt lat="43.7345" lon="4.78976">
        <ele>140.3</ele>
        <time>2022-10-16T08:14:58Z</time>
      </trkpt>
      <trkpt lat="43.73464" lon="4.78986">
        <ele>138.2</ele>
      </trkpt>
      <trkpt lat="43.73479" lon="4.78995">
        <ele>135.7</ele>
      </trkpt>
      <trkpt lat="43.73483" lon="4.78996">
        <ele>135</ele>
      </trkpt>
      <trkpt lat="43.73488" lon="4.79003">
        <ele>134.1</ele>
      </trkpt>
      <trkpt lat="43.7349" lon="4.7901">
        <ele>133.8</ele>
        <time>2022-10-16T08:15:43Z</time>
      </trkpt>
      <trkpt lat="43.73497" lon="4.79019">
        <ele>132.8</ele>
      </trkpt>
      <trkpt lat="43.73501" lon="4.79031">
        <ele>132.3</ele>
        <time>2022-10-16T08:16:07Z</time>
      </trkpt>
      <trkpt lat="43.7351" lon="4.79057">
        <ele>131.7</ele>
        <time>2022-10-16T08:16:28Z</time>
      </trkpt>
      <trkpt lat="43.73524" lon="4.79061">
        <ele>130.2</ele>
      </trkpt>
      <trkpt lat="43.7354" lon="4.79066">
        <ele>128.5</ele>
        <time>2022-10-16T08:16:50Z</time>
      </trkpt>
      <trkpt lat="43.73558" lon="4.79074">
        <ele>126.4</ele>
        <time>2022-10-16T08:17:08Z</time>
      </trkpt>
      <trkpt lat="43.73571" lon="4.79078">
        <ele>124.7</ele>
        <time>2022-10-16T08:17:21Z</time>
      </trkpt>
      <trkpt lat="43.7358" lon="4.7908">
        <ele>123.5</ele>
      </trkpt>
      <trkpt lat="43.73589" lon="4.79084">
        <ele>122.8</ele>
        <time>2022-10-16T08:17:38Z</time>
      </trkpt>
      <trkpt lat="43.73605" lon="4.79089">
        <ele>122.2</ele>
        <time>2022-10-16T08:17:55Z</time>
      </trkpt>
      <trkpt lat="43.73617" lon="4.79093">
        <ele>121.8</ele>
      </trkpt>
      <trkpt lat="43.73629" lon="4.79092">
        <ele>121.5</ele>
      </trkpt>
      <trkpt lat="43.73655" lon="4.79088">
        <ele>121</ele>
        <time>2022-10-16T08:18:39Z</time>
      </trkpt>
      <trkpt lat="43.73673" lon="4.79086">
        <ele>120.5</ele>
        <time>2022-10-16T08:18:58Z</time>
      </trkpt>
      <trkpt lat="43.73678" lon="4.79085">
        <ele>120.3</ele>
      </trkpt>
      <trkpt lat="43.73684" lon="4.79082">
        <ele>120.3</ele>
        <time>2022-10-16T08:19:04Z</time>
      </trkpt>
      <trkpt lat="43.73698" lon="4.79083">
        <ele>119.6</ele>
        <time>2022-10-16T08:19:21Z</time>
      </trkpt>
      <trkpt lat="43.73732" lon="4.79084">
        <ele>117.8</ele>
        <time>2022-10-16T08:19:55Z</time>
      </trkpt>
      <trkpt lat="43.73755" lon="4.79084">
        <ele>116.5</ele>
      </trkpt>
      <trkpt lat="43.73778" lon="4.79081">
        <ele>114.5</ele>
        <time>2022-10-16T08:20:35Z</time>
      </trkpt>
      <trkpt lat="43.73802" lon="4.79082">
        <ele>112.1</ele>
      </trkpt>
      <trkpt lat="43.73806" lon="4.79085">
        <ele>111.6</ele>
        <time>2022-10-16T08:22:24Z</time>
      </trkpt>
      <trkpt lat="43.73813" lon="4.79104">
        <ele>109.9</ele>
        <time>2022-10-16T08:22:39Z</time>
      </trkpt>
      <trkpt lat="43.73819" lon="4.79119">
        <ele>108.5</ele>
      </trkpt>
      <trkpt lat="43.73825" lon="4.79135">
        <ele>107.2</ele>
        <time>2022-10-16T08:23:07Z</time>
      </trkpt>
      <trkpt lat="43.73837" lon="4.79159">
        <ele>105.5</ele>
        <time>2022-10-16T08:23:27Z</time>
      </trkpt>
      <trkpt lat="43.73855" lon="4.7917">
        <ele>105.4</ele>
        <time>2022-10-16T08:23:46Z</time>
      </trkpt>
      <trkpt lat="43.73883" lon="4.79176">
        <ele>106</ele>
        <time>2022-10-16T08:24:20Z</time>
      </trkpt>
      <trkpt lat="43.73912" lon="4.7919">
        <ele>106.6</ele>
        <time>2022-10-16T08:24:52Z</time>
      </trkpt>
      <trkpt lat="43.73916" lon="4.7919">
        <ele>106.7</ele>
        <time>2022-10-16T08:25:01Z</time>
      </trkpt>
      <trkpt lat="43.73927" lon="4.79197">
        <ele>108.3</ele>
      </trkpt>
      <trkpt lat="43.73932" lon="4.79209">
        <ele>109.2</ele>
      </trkpt>
      <trkpt lat="43.73937" lon="4.79219">
        <ele>110.1</ele>
      </trkpt>
      <trkpt lat="43.73943" lon="4.79247">
        <ele>111.1</ele>
      </trkpt>
      <trkpt lat="43.7395" lon="4.79276">
        <ele>111.8</ele>
      </trkpt>
      <trkpt lat="43.73958" lon="4.79299">
        <ele>113</ele>
      </trkpt>
      <trkpt lat="43.73974" lon="4.7933">
        <ele>115.7</ele>
      </trkpt>
      <trkpt lat="43.73977" lon="4.79352">
        <ele>115.6</ele>
      </trkpt>
      <trkpt lat="43.73977" lon="4.79378">
        <ele>114.4</ele>
      </trkpt>
      <trkpt lat="43.73985" lon="4.79414">
        <ele>114.6</ele>
      </trkpt>
      <trkpt lat="43.73988" lon="4.79419">
        <ele>115.2</ele>
      </trkpt>
      <trkpt lat="43.73999" lon="4.79422">
        <ele>117.5</ele>
      </trkpt>
      <trkpt lat="43.74019" lon="4.79419">
        <ele>123.5</ele>
        <time>2022-10-16T08:29:19Z</time>
      </trkpt>
      <trkpt lat="43.74044" lon="4.79406">
        <ele>132</ele>
      </trkpt>
      <trkpt lat="43.74058" lon="4.79408">
        <ele>136.2</ele>
      </trkpt>
      <trkpt lat="43.74064" lon="4.79405">
        <ele>138</ele>
      </trkpt>
      <trkpt lat="43.74068" lon="4.79406">
        <ele>139.4</ele>
        <time>2022-10-16T08:33:15Z</time>
      </trkpt>
      <trkpt lat="43.74075" lon="4.79423">
        <ele>139.4</ele>
      </trkpt>
      <trkpt lat="43.74083" lon="4.79438">
        <ele>139.3</ele>
        <time>2022-10-16T08:33:30Z</time>
      </trkpt>
      <trkpt lat="43.74111" lon="4.79473">
        <ele>139.5</ele>
      </trkpt>
      <trkpt lat="43.74116" lon="4.79481">
        <ele>139.2</ele>
      </trkpt>
      <trkpt lat="43.74126" lon="4.79497">
        <ele>138.3</ele>
        <time>2022-10-16T08:34:30Z</time>
      </trkpt>
      <trkpt lat="43.74136" lon="4.79496">
        <ele>140.5</ele>
      </trkpt>
      <trkpt lat="43.74131" lon="4.79478">
        <ele>143</ele>
      </trkpt>
      <trkpt lat="43.74126" lon="4.79455">
        <ele>146.4</ele>
        <time>2022-10-16T08:53:02Z</time>
      </trkpt>
      <trkpt lat="43.7412" lon="4.79437">
        <ele>148.4</ele>
        <time>2022-10-16T08:53:12Z</time>
      </trkpt>
      <trkpt lat="43.74116" lon="4.79425">
        <ele>149.5</ele>
      </trkpt>
      <trkpt lat="43.74111" lon="4.79416">
        <ele>150</ele>
        <time>2022-10-16T08:53:27Z</time>
      </trkpt>
      <trkpt lat="43.74104" lon="4.79401">
        <ele>149.9</ele>
      </trkpt>
      <trkpt lat="43.74098" lon="4.79387">
        <ele>150.1</ele>
      </trkpt>
      <trkpt lat="43.7409" lon="4.79361">
        <ele>150.3</ele>
        <time>2022-10-16T08:53:55Z</time>
      </trkpt>
      <trkpt lat="43.74081" lon="4.79345">
        <ele>149.2</ele>
        <time>2022-10-16T08:54:14Z</time>
      </trkpt>
      <trkpt lat="43.74074" lon="4.79334">
        <ele>147.6</ele>
        <time>2022-10-16T08:54:24Z</time>
      </trkpt>
      <trkpt lat="43.7406" lon="4.79315">
        <ele>142.5</ele>
        <time>2022-10-16T08:54:41Z</time>
      </trkpt>
      <trkpt lat="43.74057" lon="4.79306">
        <ele>141.5</ele>
      </trkpt>
      <trkpt lat="43.74058" lon="4.79292">
        <ele>141.7</ele>
      </trkpt>
      <trkpt lat="43.74062" lon="4.79277">
        <ele>143</ele>
        <time>2022-10-16T08:57:35Z</time>
      </trkpt>
      <trkpt lat="43.7407" lon="4.7925">
        <ele>145.5</ele>
      </trkpt>
      <trkpt lat="43.74083" lon="4.79225">
        <ele>147.4</ele>
        <time>2022-10-16T08:58:29Z</time>
      </trkpt>
      <trkpt lat="43.74087" lon="4.7921">
        <ele>147</ele>
      </trkpt>
      <trkpt lat="43.74093" lon="4.79203">
        <ele>147.6</ele>
      </trkpt>
      <trkpt lat="43.74101" lon="4.79198">
        <ele>148.8</ele>
        <time>2022-10-16T08:58:58Z</time>
      </trkpt>
      <trkpt lat="43.74107" lon="4.79194">
        <ele>149.5</ele>
      </trkpt>
      <trkpt lat="43.74121" lon="4.79191">
        <ele>152.1</ele>
      </trkpt>
      <trkpt lat="43.74129" lon="4.79188">
        <ele>153.2</ele>
      </trkpt>
      <trkpt lat="43.74143" lon="4.79189">
        <ele>156.2</ele>
        <time>2022-10-16T08:59:52Z</time>
      </trkpt>
      <trkpt lat="43.74155" lon="4.7919">
        <ele>159</ele>
        <time>2022-10-16T09:00:06Z</time>
      </trkpt>
      <trkpt lat="43.7422" lon="4.79234">
        <ele>175.4</ele>
      </trkpt>
      <trkpt lat="43.74288" lon="4.7928">
        <ele>178</ele>
        <time>2022-10-16T09:02:57Z</time>
      </trkpt>
      <trkpt lat="43.7431" lon="4.79293">
        <ele>175.2</ele>
        <time>2022-10-16T09:03:16Z</time>
      </trkpt>
      <trkpt lat="43.74328" lon="4.79269">
        <ele>161.1</ele>
        <time>2022-10-16T09:07:25Z</time>
      </trkpt>
      <trkpt lat="43.74346" lon="4.79286">
        <ele>162.2</ele>
        <time>2022-10-16T09:07:54Z</time>
      </trkpt>
      <trkpt lat="43.74392" lon="4.79285">
        <ele>150.2</ele>
        <time>2022-10-16T09:08:34Z</time>
      </trkpt>
      <trkpt lat="43.74402" lon="4.79272">
        <ele>143.5</ele>
        <time>2022-10-16T09:08:50Z</time>
      </trkpt>
      <trkpt lat="43.74405" lon="4.7926">
        <ele>138.9</ele>
        <time>2022-10-16T09:13:28Z</time>
      </trkpt>
      <trkpt lat="43.74406" lon="4.79224">
        <ele>132.3</ele>
        <time>2022-10-16T09:13:55Z</time>
      </trkpt>
      <trkpt lat="43.74411" lon="4.792">
        <ele>128.4</ele>
      </trkpt>
      <trkpt lat="43.74423" lon="4.79183">
        <ele>126.2</ele>
      </trkpt>
      <trkpt lat="43.74411" lon="4.7916">
        <ele>124.5</ele>
      </trkpt>
      <trkpt lat="43.74409" lon="4.79157">
        <ele>124.6</ele>
      </trkpt>
      <trkpt lat="43.74409" lon="4.79145">
        <ele>124.4</ele>
      </trkpt>
      <trkpt lat="43.74384" lon="4.79125">
        <ele>124.6</ele>
        <time>2022-10-16T09:16:22Z</time>
      </trkpt>
      <trkpt lat="43.74343" lon="4.79076">
        <ele>119.6</ele>
        <time>2022-10-16T09:17:10Z</time>
      </trkpt>
      <trkpt lat="43.74315" lon="4.79042">
        <ele>118.9</ele>
        <time>2022-10-16T09:17:49Z</time>
      </trkpt>
      <trkpt lat="43.74306" lon="4.79016">
        <ele>117.6</ele>
        <time>2022-10-16T09:18:11Z</time>
      </trkpt>
      <trkpt lat="43.7427" lon="4.78968">
        <ele>115.7</ele>
        <time>2022-10-16T09:18:58Z</time>
      </trkpt>
      <trkpt lat="43.74212" lon="4.78916">
        <ele>110.7</ele>
        <time>2022-10-16T09:20:04Z</time>
      </trkpt>
      <trkpt lat="43.74143" lon="4.78847">
        <ele>107.6</ele>
        <time>2022-10-16T09:22:27Z</time>
      </trkpt>
      <trkpt lat="43.74132" lon="4.78842">
        <ele>107</ele>
        <time>2022-10-16T09:22:39Z</time>
      </trkpt>
      <trkpt lat="43.74104" lon="4.78769">
        <ele>105.4</ele>
        <time>2022-10-16T09:23:54Z</time>
      </trkpt>
      <trkpt lat="43.74096" lon="4.78743">
        <ele>105</ele>
        <time>2022-10-16T09:24:13Z</time>
      </trkpt>
      <trkpt lat="43.74092" lon="4.78725">
        <ele>105.1</ele>
        <time>2022-10-16T09:24:31Z</time>
      </trkpt>
      <trkpt lat="43.74092" lon="4.78691">
        <ele>105.8</ele>
        <time>2022-10-16T09:24:53Z</time>
      </trkpt>
      <trkpt lat="43.74047" lon="4.78611">
        <ele>109.4</ele>
        <time>2022-10-16T09:25:58Z</time>
      </trkpt>
      <trkpt lat="43.74035" lon="4.78597">
        <ele>109.7</ele>
        <time>2022-10-16T09:26:13Z</time>
      </trkpt>
      <trkpt lat="43.74022" lon="4.78589">
        <ele>109</ele>
        <time>2022-10-16T09:26:32Z</time>
      </trkpt>
      <trkpt lat="43.74009" lon="4.78587">
        <ele>107.7</ele>
        <time>2022-10-16T09:26:43Z</time>
      </trkpt>
      <trkpt lat="43.73987" lon="4.78583">
        <ele>106.1</ele>
        <time>2022-10-16T09:27:14Z</time>
      </trkpt>
      <trkpt lat="43.73969" lon="4.78566">
        <ele>107.5</ele>
      </trkpt>
      <trkpt lat="43.7395" lon="4.78548">
        <ele>108.4</ele>
        <time>2022-10-16T09:27:30Z</time>
      </trkpt>
      <trkpt lat="43.73932" lon="4.78521">
        <ele>109.9</ele>
        <time>2022-10-16T09:28:03Z</time>
      </trkpt>
      <trkpt lat="43.73902" lon="4.78506">
        <ele>107.4</ele>
        <time>2022-10-16T09:28:34Z</time>
      </trkpt>
      <trkpt lat="43.73879" lon="4.78504">
        <ele>104.6</ele>
        <time>2022-10-16T09:29:01Z</time>
      </trkpt>
      <trkpt lat="43.73856" lon="4.78495">
        <ele>102.5</ele>
        <time>2022-10-16T09:29:18Z</time>
      </trkpt>
      <trkpt lat="43.73841" lon="4.78475">
        <ele>102.2</ele>
        <time>2022-10-16T09:29:39Z</time>
      </trkpt>
      <trkpt lat="43.73827" lon="4.78454">
        <ele>101.9</ele>
        <time>2022-10-16T09:29:54Z</time>
      </trkpt>
      <trkpt lat="43.73811" lon="4.78409">
        <ele>101.5</ele>
        <time>2022-10-16T09:30:11Z</time>
      </trkpt>
      <trkpt lat="43.73816" lon="4.78376">
        <ele>101.2</ele>
      </trkpt>
      <trkpt lat="43.73832" lon="4.78333">
        <ele>101.8</ele>
      </trkpt>
      <trkpt lat="43.73836" lon="4.78316">
        <ele>103</ele>
      </trkpt>
      <trkpt lat="43.73834" lon="4.78309">
        <ele>103</ele>
      </trkpt>
      <trkpt lat="43.73804" lon="4.78282">
        <ele>100.9</ele>
        <time>2022-10-16T09:34:16Z</time>
      </trkpt>
      <trkpt lat="43.73798" lon="4.78263">
        <ele>101.3</ele>
        <time>2022-10-16T09:34:34Z</time>
      </trkpt>
      <trkpt lat="43.73792" lon="4.78245">
        <ele>101.7</ele>
      </trkpt>
      <trkpt lat="43.73791" lon="4.78235">
        <ele>101.8</ele>
        <time>2022-10-16T09:34:50Z</time>
      </trkpt>
      <trkpt lat="43.73782" lon="4.78188">
        <ele>102.3</ele>
      </trkpt>
      <trkpt lat="43.73777" lon="4.78175">
        <ele>102</ele>
      </trkpt>
      <trkpt lat="43.73776" lon="4.78167">
        <ele>102.1</ele>
      </trkpt>
      <trkpt lat="43.73778" lon="4.78154">
        <ele>102.8</ele>
      </trkpt>
      <trkpt lat="43.73781" lon="4.78138">
        <ele>103.7</ele>
      </trkpt>
      <trkpt lat="43.73779" lon="4.78128">
        <ele>103.7</ele>
        <time>2022-10-16T09:36:53Z</time>
      </trkpt>
      <trkpt lat="43.73772" lon="4.78125">
        <ele>103</ele>
        <time>2022-10-16T09:36:58Z</time>
      </trkpt>
      <trkpt lat="43.73754" lon="4.7812">
        <ele>101.1</ele>
        <time>2022-10-16T09:37:12Z</time>
      </trkpt>
      <trkpt lat="43.73708" lon="4.78105">
        <ele>95.4</ele>
      </trkpt>
      <trkpt lat="43.73686" lon="4.78051">
        <ele>93</ele>
      </trkpt>
      <trkpt lat="43.7368" lon="4.78027">
        <ele>92.6</ele>
      </trkpt>
      <trkpt lat="43.73688" lon="4.78012">
        <ele>93.5</ele>
      </trkpt>
      <trkpt lat="43.73707" lon="4.7801">
        <ele>95</ele>
      </trkpt>
      <trkpt lat="43.73715" lon="4.78013">
        <ele>95.7</ele>
      </trkpt>
      <trkpt lat="43.73743" lon="4.7804">
        <ele>99.2</ele>
      </trkpt>
      <trkpt lat="43.73749" lon="4.78042">
        <ele>99.9</ele>
      </trkpt>
      <trkpt lat="43.73755" lon="4.78038">
        <ele>100.2</ele>
      </trkpt>
      <trkpt lat="43.73754" lon="4.78025">
        <ele>99.5</ele>
        <time>2022-10-16T09:39:09Z</time>
      </trkpt>
      <trkpt lat="43.73741" lon="4.7798">
        <ele>95.7</ele>
        <time>2022-10-16T09:39:43Z</time>
      </trkpt>
      <trkpt lat="43.73733" lon="4.77949">
        <ele>93</ele>
        <time>2022-10-16T09:40:03Z</time>
      </trkpt>
      <trkpt lat="43.73706" lon="4.77897">
        <ele>88.6</ele>
        <time>2022-10-16T09:40:43Z</time>
      </trkpt>
      <trkpt lat="43.73719" lon="4.77884">
        <ele>88</ele>
        <time>2022-10-16T09:43:55Z</time>
      </trkpt>
      <trkpt lat="43.73707" lon="4.77898">
        <ele>88.6</ele>
        <time>2022-10-16T09:44:03Z</time>
      </trkpt>
      <trkpt lat="43.73694" lon="4.77865">
        <ele>85.7</ele>
        <time>2022-10-16T09:44:39Z</time>
      </trkpt>
      <trkpt lat="43.73691" lon="4.77811">
        <ele>83.6</ele>
        <time>2022-10-16T11:04:56Z</time>
      </trkpt>
      <trkpt lat="43.73688" lon="4.77768">
        <ele>84.4</ele>
        <time>2022-10-16T11:05:27Z</time>
      </trkpt>
      <trkpt lat="43.73681" lon="4.77706">
        <ele>87.9</ele>
        <time>2022-10-16T11:06:08Z</time>
      </trkpt>
      <trkpt lat="43.7367" lon="4.77663">
        <ele>91</ele>
        <time>2022-10-16T11:06:39Z</time>
      </trkpt>
      <trkpt lat="43.73664" lon="4.77646">
        <ele>91.8</ele>
        <time>2022-10-16T11:06:54Z</time>
      </trkpt>
      <trkpt lat="43.73677" lon="4.77615">
        <ele>92.7</ele>
        <time>2022-10-16T11:07:24Z</time>
      </trkpt>
      <trkpt lat="43.73675" lon="4.77612">
        <ele>92.8</ele>
        <time>2022-10-16T11:07:29Z</time>
      </trkpt>
      <trkpt lat="43.73689" lon="4.77516">
        <ele>97.2</ele>
        <time>2022-10-16T11:09:32Z</time>
      </trkpt>
      <trkpt lat="43.73693" lon="4.77404">
        <ele>103.6</ele>
      </trkpt>
      <trkpt lat="43.73674" lon="4.77322">
        <ele>107.8</ele>
      </trkpt>
      <trkpt lat="43.73645" lon="4.77203">
        <ele>114.5</ele>
        <time>2022-10-16T11:13:49Z</time>
      </trkpt>
      <trkpt lat="43.73626" lon="4.77177">
        <ele>115.5</ele>
        <time>2022-10-16T11:14:10Z</time>
      </trkpt>
      <trkpt lat="43.73614" lon="4.77167">
        <ele>115.7</ele>
        <time>2022-10-16T11:14:31Z</time>
      </trkpt>
      <trkpt lat="43.7361" lon="4.77138">
        <ele>118.3</ele>
        <time>2022-10-16T11:14:41Z</time>
      </trkpt>
      <trkpt lat="43.73605" lon="4.77102">
        <ele>121.5</ele>
      </trkpt>
      <trkpt lat="43.73595" lon="4.77075">
        <ele>123.8</ele>
        <time>2022-10-16T11:15:00Z</time>
      </trkpt>
      <trkpt lat="43.73568" lon="4.77035">
        <ele>126.1</ele>
        <time>2022-10-16T11:15:17Z</time>
      </trkpt>
      <trkpt lat="43.73456" lon="4.76992">
        <ele>121.1</ele>
        <time>2022-10-16T11:19:31Z</time>
      </trkpt>
      <trkpt lat="43.73377" lon="4.76959">
        <ele>114.1</ele>
        <time>2022-10-16T11:21:13Z</time>
      </trkpt>
      <trkpt lat="43.7334" lon="4.76946">
        <ele>111.8</ele>
        <time>2022-10-16T11:21:28Z</time>
      </trkpt>
      <trkpt lat="43.73305" lon="4.76931">
        <ele>112.3</ele>
        <time>2022-10-16T11:21:48Z</time>
      </trkpt>
      <trkpt lat="43.73287" lon="4.76902">
        <ele>111.9</ele>
        <time>2022-10-16T11:22:20Z</time>
      </trkpt>
      <trkpt lat="43.73269" lon="4.76871">
        <ele>108.8</ele>
        <time>2022-10-16T11:23:22Z</time>
      </trkpt>
      <trkpt lat="43.7326" lon="4.7684">
        <ele>105.4</ele>
        <time>2022-10-16T11:23:27Z</time>
      </trkpt>
      <trkpt lat="43.73265" lon="4.76807">
        <ele>103.7</ele>
        <time>2022-10-16T11:23:48Z</time>
      </trkpt>
      <trkpt lat="43.73268" lon="4.7679">
        <ele>103</ele>
        <time>2022-10-16T11:23:54Z</time>
      </trkpt>
      <trkpt lat="43.73269" lon="4.7678">
        <ele>102.6</ele>
      </trkpt>
      <trkpt lat="43.73262" lon="4.76764">
        <ele>101.1</ele>
      </trkpt>
      <trkpt lat="43.73257" lon="4.7676">
        <ele>100.3</ele>
        <time>2022-10-16T11:24:23Z</time>
      </trkpt>
      <trkpt lat="43.73247" lon="4.76757">
        <ele>99.2</ele>
      </trkpt>
      <trkpt lat="43.73235" lon="4.76757">
        <ele>98.3</ele>
        <time>2022-10-16T11:24:33Z</time>
      </trkpt>
      <trkpt lat="43.73222" lon="4.76753">
        <ele>97.1</ele>
        <time>2022-10-16T11:24:40Z</time>
      </trkpt>
      <trkpt lat="43.73196" lon="4.76742">
        <ele>95</ele>
        <time>2022-10-16T11:25:08Z</time>
      </trkpt>
      <trkpt lat="43.73175" lon="4.76725">
        <ele>93.2</ele>
        <time>2022-10-16T11:25:42Z</time>
      </trkpt>
      <trkpt lat="43.7316" lon="4.76712">
        <ele>92.1</ele>
        <time>2022-10-16T11:25:51Z</time>
      </trkpt>
      <trkpt lat="43.73135" lon="4.76719">
        <ele>90.4</ele>
        <time>2022-10-16T11:26:09Z</time>
      </trkpt>
      <trkpt lat="43.73114" lon="4.76725">
        <ele>89.2</ele>
        <time>2022-10-16T11:26:27Z</time>
      </trkpt>
      <trkpt lat="43.73103" lon="4.76723">
        <ele>88.3</ele>
        <time>2022-10-16T11:26:38Z</time>
      </trkpt>
      <trkpt lat="43.73074" lon="4.76715">
        <ele>85.6</ele>
        <time>2022-10-16T11:27:11Z</time>
      </trkpt>
      <trkpt lat="43.73048" lon="4.7671">
        <ele>81.9</ele>
        <time>2022-10-16T11:27:34Z</time>
      </trkpt>
      <trkpt lat="43.73018" lon="4.76699">
        <ele>77.4</ele>
        <time>2022-10-16T11:28:02Z</time>
      </trkpt>
      <trkpt lat="43.73001" lon="4.76695">
        <ele>74.8</ele>
      </trkpt>
      <trkpt lat="43.72979" lon="4.76698">
        <ele>73.5</ele>
        <time>2022-10-16T11:28:43Z</time>
      </trkpt>
      <trkpt lat="43.72956" lon="4.76703">
        <ele>72.3</ele>
      </trkpt>
      <trkpt lat="43.72927" lon="4.76696">
        <ele>70</ele>
      </trkpt>
      <trkpt lat="43.72902" lon="4.7668">
        <ele>68.2</ele>
        <time>2022-10-16T11:29:48Z</time>
      </trkpt>
      <trkpt lat="43.72892" lon="4.76666">
        <ele>67.4</ele>
      </trkpt>
      <trkpt lat="43.72848" lon="4.76671">
        <ele>66.5</ele>
      </trkpt>
      <trkpt lat="43.72833" lon="4.76675">
        <ele>66.2</ele>
      </trkpt>
      <trkpt lat="43.72802" lon="4.76668">
        <ele>64.5</ele>
      </trkpt>
      <trkpt lat="43.72789" lon="4.76652">
        <ele>63.4</ele>
        <time>2022-10-16T11:35:30Z</time>
      </trkpt>
      <trkpt lat="43.72772" lon="4.76645">
        <ele>62.5</ele>
        <time>2022-10-16T11:35:54Z</time>
      </trkpt>
      <trkpt lat="43.72759" lon="4.7663">
        <ele>61.5</ele>
        <time>2022-10-16T11:36:10Z</time>
      </trkpt>
      <trkpt lat="43.72731" lon="4.76602">
        <ele>59.3</ele>
        <time>2022-10-16T11:36:41Z</time>
      </trkpt>
      <trkpt lat="43.72705" lon="4.76581">
        <ele>57.2</ele>
        <time>2022-10-16T11:36:54Z</time>
      </trkpt>
      <trkpt lat="43.72689" lon="4.76575">
        <ele>56.2</ele>
        <time>2022-10-16T11:37:18Z</time>
      </trkpt>
      <trkpt lat="43.72673" lon="4.76565">
        <ele>54.9</ele>
        <time>2022-10-16T11:37:32Z</time>
      </trkpt>
      <trkpt lat="43.72655" lon="4.76546">
        <ele>53.5</ele>
        <time>2022-10-16T11:37:46Z</time>
      </trkpt>
      <trkpt lat="43.72623" lon="4.76584">
        <ele>52.4</ele>
        <time>2022-10-16T11:39:19Z</time>
      </trkpt>
      <trkpt lat="43.72614" lon="4.76599">
        <ele>52.5</ele>
        <time>2022-10-16T11:39:34Z</time>
      </trkpt>
      <trkpt lat="43.72582" lon="4.76651">
        <ele>53.2</ele>
        <time>2022-10-16T11:40:15Z</time>
      </trkpt>
      <trkpt lat="43.72562" lon="4.76697">
        <ele>51.3</ele>
      </trkpt>
      <trkpt lat="43.72555" lon="4.76717">
        <ele>50.4</ele>
        <time>2022-10-16T11:41:07Z</time>
      </trkpt>
      <trkpt lat="43.72547" lon="4.76743">
        <ele>49.3</ele>
      </trkpt>
      <trkpt lat="43.72543" lon="4.7677">
        <ele>48</ele>
        <time>2022-10-16T11:41:39Z</time>
      </trkpt>
      <trkpt lat="43.72537" lon="4.76831">
        <ele>45.7</ele>
        <time>2022-10-16T11:42:02Z</time>
      </trkpt>
      <trkpt lat="43.72544" lon="4.7702">
        <ele>45.9</ele>
        <time>2022-10-16T11:45:20Z</time>
      </trkpt>
      <trkpt lat="43.72549" lon="4.7714">
        <ele>47.5</ele>
        <time>2022-10-16T11:45:38Z</time>
      </trkpt>
      <trkpt lat="43.7255" lon="4.77152">
        <ele>47.7</ele>
        <time>2022-10-16T11:45:42Z</time>
      </trkpt>
      <trkpt lat="43.72552" lon="4.772">
        <ele>47.8</ele>
        <time>2022-10-16T11:46:11Z</time>
      </trkpt>
      <trkpt lat="43.72557" lon="4.77326">
        <ele>47.5</ele>
        <time>2022-10-16T11:47:32Z</time>
      </trkpt>
      <trkpt lat="43.72558" lon="4.77349">
        <ele>47</ele>
        <time>2022-10-16T11:47:45Z</time>
      </trkpt>
      <trkpt lat="43.72559" lon="4.77375">
        <ele>46.1</ele>
      </trkpt>
      <trkpt lat="43.72558" lon="4.77399">
        <ele>45.2</ele>
      </trkpt>
      <trkpt lat="43.72556" lon="4.77424">
        <ele>44.4</ele>
        <time>2022-10-16T11:48:31Z</time>
      </trkpt>
      <trkpt lat="43.72548" lon="4.77484">
        <ele>44</ele>
        <time>2022-10-16T11:49:10Z</time>
      </trkpt>
      <trkpt lat="43.72532" lon="4.77541">
        <ele>41.7</ele>
      </trkpt>
      <trkpt lat="43.72526" lon="4.77558">
        <ele>40.8</ele>
        <time>2022-10-16T11:54:38Z</time>
      </trkpt>
      <trkpt lat="43.72519" lon="4.77574">
        <ele>40.1</ele>
      </trkpt>
      <trkpt lat="43.7251" lon="4.77592">
        <ele>39.5</ele>
        <time>2022-10-16T11:55:04Z</time>
      </trkpt>
      <trkpt lat="43.72502" lon="4.77606">
        <ele>39.1</ele>
      </trkpt>
      <trkpt lat="43.72494" lon="4.7762">
        <ele>38.8</ele>
        <time>2022-10-16T11:55:24Z</time>
      </trkpt>
      <trkpt lat="43.72455" lon="4.77678">
        <ele>37.1</ele>
      </trkpt>
      <trkpt lat="43.72428" lon="4.77716">
        <ele>36.7</ele>
        <time>2022-10-16T11:56:46Z</time>
      </trkpt>
      <trkpt lat="43.72421" lon="4.77728">
        <ele>36.7</ele>
      </trkpt>
      <trkpt lat="43.72417" lon="4.77732">
        <ele>36.6</ele>
      </trkpt>
      <trkpt lat="43.72416" lon="4.77737">
        <ele>36.6</ele>
      </trkpt>
      <trkpt lat="43.72414" lon="4.77752">
        <ele>36.8</ele>
      </trkpt>
      <trkpt lat="43.72401" lon="4.77792">
        <ele>36.2</ele>
        <time>2022-10-16T11:57:37Z</time>
      </trkpt>
      <trkpt lat="43.72397" lon="4.77807">
        <ele>36.1</ele>
      </trkpt>
      <trkpt lat="43.72393" lon="4.77829">
        <ele>36.1</ele>
      </trkpt>
      <trkpt lat="43.72392" lon="4.77866">
        <ele>35.8</ele>
        <time>2022-10-16T11:58:27Z</time>
      </trkpt>
      <trkpt lat="43.72397" lon="4.7791">
        <ele>35.6</ele>
        <time>2022-10-16T11:58:55Z</time>
      </trkpt>
      <trkpt lat="43.72399" lon="4.77922">
        <ele>35.5</ele>
      </trkpt>
      <trkpt lat="43.72409" lon="4.77954">
        <ele>35.4</ele>
        <time>2022-10-16T11:59:25Z</time>
      </trkpt>
      <trkpt lat="43.7241" lon="4.77979">
        <ele>35.1</ele>
        <time>2022-10-16T11:59:36Z</time>
      </trkpt>
      <trkpt lat="43.72412" lon="4.78029">
        <ele>35.2</ele>
        <time>2022-10-16T12:00:15Z</time>
      </trkpt>
      <trkpt lat="43.72418" lon="4.78059">
        <ele>35.8</ele>
        <time>2022-10-16T12:00:34Z</time>
      </trkpt>
      <trkpt lat="43.72426" lon="4.78083">
        <ele>36.9</ele>
      </trkpt>
      <trkpt lat="43.72432" lon="4.78098">
        <ele>37.4</ele>
      </trkpt>
      <trkpt lat="43.7244" lon="4.78106">
        <ele>38.2</ele>
      </trkpt>
      <trkpt lat="43.72446" lon="4.78123">
        <ele>38.8</ele>
        <time>2022-10-16T12:01:29Z</time>
      </trkpt>
      <trkpt lat="43.72444" lon="4.78204">
        <ele>37.8</ele>
      </trkpt>
      <trkpt lat="43.72453" lon="4.7823">
        <ele>38</ele>
      </trkpt>
      <trkpt lat="43.72496" lon="4.78281">
        <ele>39.7</ele>
      </trkpt>
      <trkpt lat="43.72503" lon="4.78319">
        <ele>38.7</ele>
        <time>2022-10-16T12:08:14Z</time>
      </trkpt>
      <trkpt lat="43.72495" lon="4.78343">
        <ele>37.9</ele>
        <time>2022-10-16T12:08:36Z</time>
      </trkpt>
      <trkpt lat="43.72461" lon="4.78389">
        <ele>37</ele>
        <time>2022-10-16T12:09:25Z</time>
      </trkpt>
      <trkpt lat="43.72441" lon="4.78427">
        <ele>36.4</ele>
      </trkpt>
      <trkpt lat="43.72456" lon="4.78453">
        <ele>38.3</ele>
        <time>2022-10-16T12:10:11Z</time>
      </trkpt>
      <trkpt lat="43.72466" lon="4.78473">
        <ele>40.1</ele>
        <time>2022-10-16T12:10:27Z</time>
      </trkpt>
      <trkpt lat="43.72479" lon="4.78513">
        <ele>42.6</ele>
        <time>2022-10-16T12:10:55Z</time>
      </trkpt>
      <trkpt lat="43.7248" lon="4.78539">
        <ele>41.4</ele>
        <time>2022-10-16T12:11:12Z</time>
      </trkpt>
      <trkpt lat="43.7247" lon="4.78587">
        <ele>38</ele>
      </trkpt>
      <trkpt lat="43.72458" lon="4.78622">
        <ele>35.6</ele>
        <time>2022-10-16T12:12:14Z</time>
      </trkpt>
      <trkpt lat="43.72449" lon="4.78638">
        <ele>34.6</ele>
        <time>2022-10-16T12:12:26Z</time>
      </trkpt>
      <trkpt lat="43.72433" lon="4.78651">
        <ele>33.6</ele>
        <time>2022-10-16T12:12:48Z</time>
      </trkpt>
      <trkpt lat="43.72422" lon="4.78651">
        <ele>33.2</ele>
      </trkpt>
      <trkpt lat="43.72417" lon="4.78668">
        <ele>33</ele>
        <time>2022-10-16T12:13:04Z</time>
      </trkpt>
      <trkpt lat="43.72411" lon="4.78728">
        <ele>32.1</ele>
      </trkpt>
      <trkpt lat="43.72397" lon="4.78827">
        <ele>29.2</ele>
        <time>2022-10-16T12:15:15Z</time>
      </trkpt>
      <trkpt lat="43.7239" lon="4.78871">
        <ele>28.7</ele>
        <time>2022-10-16T12:15:30Z</time>
      </trkpt>
      <trkpt lat="43.72386" lon="4.78911">
        <ele>28.5</ele>
      </trkpt>
      <trkpt lat="43.72385" lon="4.7893">
        <ele>28.5</ele>
        <time>2022-10-16T12:15:48Z</time>
      </trkpt>
      <trkpt lat="43.72384" lon="4.78963">
        <ele>28.5</ele>
        <time>2022-10-16T12:16:02Z</time>
      </trkpt>
      <trkpt lat="43.72382" lon="4.78998">
        <ele>28.3</ele>
        <time>2022-10-16T12:16:08Z</time>
      </trkpt>
      <trkpt lat="43.72377" lon="4.79015">
        <ele>28.5</ele>
      </trkpt>
      <trkpt lat="43.72369" lon="4.79034">
        <ele>28.5</ele>
        <time>2022-10-16T12:16:44Z</time>
      </trkpt>
      <trkpt lat="43.72359" lon="4.79054">
        <ele>28.3</ele>
      </trkpt>
      <trkpt lat="43.72354" lon="4.79078">
        <ele>28.4</ele>
        <time>2022-10-16T12:17:20Z</time>
      </trkpt>
      <trkpt lat="43.72352" lon="4.79121">
        <ele>28.2</ele>
        <time>2022-10-16T12:17:46Z</time>
      </trkpt>
      <trkpt lat="43.72371" lon="4.79119">
        <ele>29.5</ele>
        <time>2022-10-16T12:24:57Z</time>
      </trkpt>
      <trkpt lat="43.72387" lon="4.79118">
        <ele>30.6</ele>
      </trkpt>
      <trkpt lat="43.72407" lon="4.79113">
        <ele>32</ele>
        <time>2022-10-16T12:25:30Z</time>
      </trkpt>
      <trkpt lat="43.72439" lon="4.79105">
        <ele>33.5</ele>
        <time>2022-10-16T12:26:01Z</time>
      </trkpt>
      <trkpt lat="43.72444" lon="4.79104">
        <ele>33.7</ele>
      </trkpt>
      <trkpt lat="43.72454" lon="4.79104">
        <ele>34</ele>
      </trkpt>
      <trkpt lat="43.7249" lon="4.79109">
        <ele>35.1</ele>
        <time>2022-10-16T12:26:49Z</time>
      </trkpt>
      <trkpt lat="43.72518" lon="4.79111">
        <ele>36.5</ele>
      </trkpt>
      <trkpt lat="43.72547" lon="4.79111">
        <ele>38.5</ele>
        <time>2022-10-16T12:27:43Z</time>
      </trkpt>
      <trkpt lat="43.72562" lon="4.79117">
        <ele>39.5</ele>
        <time>2022-10-16T12:28:00Z</time>
      </trkpt>
      <trkpt lat="43.72588" lon="4.79132">
        <ele>41.3</ele>
        <time>2022-10-16T12:28:27Z</time>
      </trkpt>
      <trkpt lat="43.7258" lon="4.79178">
        <ele>40.4</ele>
      </trkpt>
      <trkpt lat="43.7257" lon="4.79221">
        <ele>38.5</ele>
        <time>2022-10-16T12:29:26Z</time>
      </trkpt>
      <trkpt lat="43.72553" lon="4.79253">
        <ele>36.4</ele>
        <time>2022-10-16T12:29:55Z</time>
      </trkpt>
      <trkpt lat="43.72548" lon="4.79289">
        <ele>35.5</ele>
      </trkpt>
      <trkpt lat="43.72547" lon="4.79328">
        <ele>34.9</ele>
      </trkpt>
      <trkpt lat="43.72548" lon="4.7935">
        <ele>35.1</ele>
        <time>2022-10-16T12:30:56Z</time>
      </trkpt>
      <trkpt lat="43.72549" lon="4.79418">
        <ele>36</ele>
        <time>2022-10-16T12:31:36Z</time>
      </trkpt>
      <trkpt lat="43.72539" lon="4.79436">
        <ele>35.9</ele>
      </trkpt>
      <trkpt lat="43.72524" lon="4.79456">
        <ele>35.3</ele>
        <time>2022-10-16T12:32:05Z</time>
      </trkpt>
      <trkpt lat="43.72508" lon="4.79461">
        <ele>34.1</ele>
        <time>2022-10-16T12:32:26Z</time>
      </trkpt>
      <trkpt lat="43.72502" lon="4.79474">
        <ele>33.9</ele>
        <time>2022-10-16T12:32:39Z</time>
      </trkpt>
      <trkpt lat="43.72483" lon="4.79555">
        <ele>34.7</ele>
        <time>2022-10-16T12:33:27Z</time>
      </trkpt>
      <trkpt lat="43.7249" lon="4.79699">
        <ele>39</ele>
        <time>2022-10-16T12:35:04Z</time>
      </trkpt>
      <trkpt lat="43.72488" lon="4.7974">
        <ele>40.6</ele>
      </trkpt>
      <trkpt lat="43.72483" lon="4.79774">
        <ele>40.9</ele>
        <time>2022-10-16T12:35:08Z</time>
      </trkpt>
      <trkpt lat="43.72477" lon="4.79847">
        <ele>41</ele>
        <time>2022-10-16T12:38:41Z</time>
      </trkpt>
      <trkpt lat="43.72482" lon="4.79895">
        <ele>41.2</ele>
        <time>2022-10-16T12:39:29Z</time>
      </trkpt>
      <trkpt lat="43.72484" lon="4.79923">
        <ele>41.3</ele>
        <time>2022-10-16T12:39:44Z</time>
      </trkpt>
      <trkpt lat="43.72411" lon="4.79999">
        <ele>38.8</ele>
        <time>2022-10-16T12:41:18Z</time>
      </trkpt>
      <trkpt lat="43.72366" lon="4.8004">
        <ele>37.6</ele>
      </trkpt>
      <trkpt lat="43.7232" lon="4.80075">
        <ele>36.9</ele>
      </trkpt>
      <trkpt lat="43.72285" lon="4.80076">
        <ele>36.5</ele>
        <time>2022-10-16T12:44:16Z</time>
      </trkpt>
      <trkpt lat="43.72268" lon="4.80074">
        <ele>36.4</ele>
        <time>2022-10-16T12:44:32Z</time>
      </trkpt>
      <trkpt lat="43.72258" lon="4.80073">
        <ele>36.3</ele>
      </trkpt>
      <trkpt lat="43.72252" lon="4.8008">
        <ele>36.1</ele>
        <time>2022-10-16T12:44:49Z</time>
      </trkpt>
      <trkpt lat="43.72235" lon="4.80099">
        <ele>35.6</ele>
        <time>2022-10-16T12:48:52Z</time>
      </trkpt>
      <trkpt lat="43.72233" lon="4.80106">
        <ele>35.5</ele>
      </trkpt>
      <trkpt lat="43.72231" lon="4.80121">
        <ele>35.3</ele>
        <time>2022-10-16T12:49:09Z</time>
      </trkpt>
      <trkpt lat="43.72222" lon="4.80161">
        <ele>34.7</ele>
        <time>2022-10-16T12:49:37Z</time>
      </trkpt>
      <trkpt lat="43.72222" lon="4.80179">
        <ele>34.6</ele>
        <time>2022-10-16T12:49:43Z</time>
      </trkpt>
      <trkpt lat="43.72222" lon="4.80196">
        <ele>34.6</ele>
      </trkpt>
      <trkpt lat="43.72221" lon="4.80212">
        <ele>34.4</ele>
        <time>2022-10-16T12:50:10Z</time>
      </trkpt>
      <trkpt lat="43.7222" lon="4.80226">
        <ele>34.3</ele>
        <time>2022-10-16T12:50:30Z</time>
      </trkpt>
      <trkpt lat="43.72195" lon="4.80231">
        <ele>33.6</ele>
        <time>2022-10-16T12:50:44Z</time>
      </trkpt>
      <trkpt lat="43.72184" lon="4.80228">
        <ele>33.3</ele>
        <time>2022-10-16T12:50:59Z</time>
      </trkpt>
      <trkpt lat="43.72164" lon="4.80237">
        <ele>32.8</ele>
      </trkpt>
      <trkpt lat="43.72039" lon="4.80248">
        <ele>30</ele>
      </trkpt>
      <trkpt lat="43.72021" lon="4.80401">
        <ele>29.3</ele>
        <time>2022-10-16T12:59:07Z</time>
      </trkpt>
      <trkpt lat="43.72014" lon="4.80453">
        <ele>29.9</ele>
        <time>2022-10-16T12:59:44Z</time>
      </trkpt>
      <trkpt lat="43.72008" lon="4.80489">
        <ele>30.2</ele>
        <time>2022-10-16T13:00:39Z</time>
      </trkpt>
      <trkpt lat="43.71956" lon="4.80484">
        <ele>29.3</ele>
        <time>2022-10-16T13:00:52Z</time>
      </trkpt>
      <trkpt lat="43.71952" lon="4.8051">
        <ele>29.7</ele>
        <time>2022-10-16T13:01:11Z</time>
      </trkpt>
      <trkpt lat="43.71951" lon="4.80535">
        <ele>30.4</ele>
        <time>2022-10-16T13:01:28Z</time>
      </trkpt>
      <trkpt lat="43.71949" lon="4.8055">
        <ele>30.8</ele>
        <time>2022-10-16T13:01:36Z</time>
      </trkpt>
      <trkpt lat="43.71903" lon="4.80544">
        <ele>29.9</ele>
        <time>2022-10-16T13:02:19Z</time>
      </trkpt>
      <trkpt lat="43.71884" lon="4.80538">
        <ele>29.6</ele>
      </trkpt>
      <trkpt lat="43.71848" lon="4.80535">
        <ele>29.1</ele>
        <time>2022-10-16T13:03:07Z</time>
      </trkpt>
      <trkpt lat="43.71839" lon="4.80535">
        <ele>29.1</ele>
      </trkpt>
      <trkpt lat="43.71836" lon="4.80552">
        <ele>29</ele>
        <time>2022-10-16T13:03:21Z</time>
      </trkpt>
      <trkpt lat="43.71832" lon="4.80577">
        <ele>29</ele>
        <time>2022-10-16T13:03:38Z</time>
      </trkpt>
      <trkpt lat="43.71828" lon="4.80606">
        <ele>28.9</ele>
        <time>2022-10-16T13:03:55Z</time>
      </trkpt>
      <trkpt lat="43.71827" lon="4.80629">
        <ele>28.9</ele>
        <time>2022-10-16T13:04:09Z</time>
      </trkpt>
      <trkpt lat="43.71823" lon="4.80679">
        <ele>28.9</ele>
        <time>2022-10-16T13:04:39Z</time>
      </trkpt>
      <trkpt lat="43.71822" lon="4.80699">
        <ele>28.8</ele>
        <time>2022-10-16T13:04:55Z</time>
      </trkpt>
      <trkpt lat="43.71818" lon="4.80702">
        <ele>28.7</ele>
        <time>2022-10-16T13:05:15Z</time>
      </trkpt>
      <trkpt lat="43.71803" lon="4.80702">
        <ele>28.5</ele>
        <time>2022-10-16T13:05:31Z</time>
      </trkpt>
      <trkpt lat="43.71776" lon="4.80704">
        <ele>28</ele>
      </trkpt>
      <trkpt lat="43.71756" lon="4.80728">
        <ele>27.4</ele>
        <time>2022-10-16T13:05:51Z</time>
      </trkpt>
    </trkseg>
  </trk>
</gpx>